<?xml version="1.0" encoding="UTF-8"?>
<gpx creator="Garmin Connect" version="1.1"
  xsi:schemaLocation="http://www.topografix.com/GPX/1/1 http://www.topografix.com/GPX/11.xsd"
  xmlns:ns3="http://www.garmin.com/xmlschemas/TrackPointExtension/v1"
  xmlns="http://www.topografix.com/GPX/1/1"
  xmlns:xsi="http://www.w3.org/2001/XMLSchema-instance" xmlns:ns2="http://www.garmin.com/xmlschemas/GpxExtensions/v3">
  <metadata>
    <name>STUPAVA MARATÓN - MTB 25 KM </name>
    <link href="connect.garmin.com">
      <text>Garmin Connect</text>
    </link>
    <time>2023-06-13T14:41:07.000Z</time>
  </metadata>
  <trk>
    <name>STUPAVA MARATÓN - MTB 25 KM </name>
    <trkseg>
      <trkpt lat="48.278964227065444" lon="17.048807479441166">
        <ele>194.91</ele>
        <time>2023-06-13T14:41:07.000Z</time>
      </trkpt>
      <trkpt lat="48.279097164049745" lon="17.049890756607056">
        <ele>196.72</ele>
        <time>2023-06-13T14:41:07.015Z</time>
      </trkpt>
      <trkpt lat="48.27917226590216" lon="17.050459384918213">
        <ele>197.76</ele>
        <time>2023-06-13T14:41:07.037Z</time>
      </trkpt>
      <trkpt lat="48.27940821647644" lon="17.0522940158844">
        <ele>198.83</ele>
        <time>2023-06-13T14:41:07.084Z</time>
      </trkpt>
      <trkpt lat="48.27956202439964" lon="17.05352582037449">
        <ele>201.57</ele>
        <time>2023-06-13T14:41:07.148Z</time>
      </trkpt>
      <trkpt lat="48.27956168912351" lon="17.053522719070315">
        <ele>201.59</ele>
        <time>2023-06-13T14:41:07.212Z</time>
      </trkpt>
      <trkpt lat="48.279561353847384" lon="17.05351953394711">
        <ele>201.59</ele>
        <time>2023-06-13T14:41:07.276Z</time>
      </trkpt>
      <trkpt lat="48.27956101857126" lon="17.05351651646197">
        <ele>201.6</ele>
        <time>2023-06-13T14:41:07.340Z</time>
      </trkpt>
      <trkpt lat="48.27973008155823" lon="17.054868936538696">
        <ele>203.52</ele>
        <time>2023-06-13T14:41:07.423Z</time>
      </trkpt>
      <trkpt lat="48.27973016537726" lon="17.054868936538696">
        <ele>203.48</ele>
        <time>2023-06-13T14:41:07.506Z</time>
      </trkpt>
      <trkpt lat="48.27990182675421" lon="17.05626368522644">
        <ele>203.33</ele>
        <time>2023-06-13T14:41:07.608Z</time>
      </trkpt>
      <trkpt lat="48.27994465827942" lon="17.056671380996704">
        <ele>202.82</ele>
        <time>2023-06-13T14:41:07.715Z</time>
      </trkpt>
      <trkpt lat="48.27996611595154" lon="17.05673575401306">
        <ele>202.47</ele>
        <time>2023-06-13T14:41:07.823Z</time>
      </trkpt>
      <trkpt lat="48.27969789505005" lon="17.056875228881836">
        <ele>202.13</ele>
        <time>2023-06-13T14:41:07.937Z</time>
      </trkpt>
      <trkpt lat="48.2794189453125" lon="17.05698251724243">
        <ele>201.91</ele>
        <time>2023-06-13T14:41:08.057Z</time>
      </trkpt>
      <trkpt lat="48.27922582626343" lon="17.057089805603027">
        <ele>201.62</ele>
        <time>2023-06-13T14:41:08.181Z</time>
      </trkpt>
      <trkpt lat="48.279064893722534" lon="17.05724000930786">
        <ele>201.33</ele>
        <time>2023-06-13T14:41:08.308Z</time>
      </trkpt>
      <trkpt lat="48.27892541885376" lon="17.057411670684814">
        <ele>201.1</ele>
        <time>2023-06-13T14:41:08.439Z</time>
      </trkpt>
      <trkpt lat="48.278818214312196" lon="17.057572603225708">
        <ele>201.01</ele>
        <time>2023-06-13T14:41:08.573Z</time>
      </trkpt>
      <trkpt lat="48.278818130493164" lon="17.057572603225708">
        <ele>200.98</ele>
        <time>2023-06-13T14:41:08.707Z</time>
      </trkpt>
      <trkpt lat="48.27824958600104" lon="17.05851674079895">
        <ele>201.06</ele>
        <time>2023-06-13T14:41:08.858Z</time>
      </trkpt>
      <trkpt lat="48.27824950218201" lon="17.05851674079895">
        <ele>201.19</ele>
        <time>2023-06-13T14:41:09.009Z</time>
      </trkpt>
      <trkpt lat="48.27809929847717" lon="17.05877423286438">
        <ele>201.5</ele>
        <time>2023-06-13T14:41:09.165Z</time>
      </trkpt>
      <trkpt lat="48.27800282277167" lon="17.058967351913452">
        <ele>201.82</ele>
        <time>2023-06-13T14:41:09.324Z</time>
      </trkpt>
      <trkpt lat="48.27800273895264" lon="17.058967351913452">
        <ele>202.17</ele>
        <time>2023-06-13T14:41:09.483Z</time>
      </trkpt>
      <trkpt lat="48.27720880508423" lon="17.06080198287964">
        <ele>202.69</ele>
        <time>2023-06-13T14:41:09.671Z</time>
      </trkpt>
      <trkpt lat="48.276307582855225" lon="17.062679529190063">
        <ele>203.43</ele>
        <time>2023-06-13T14:41:09.890Z</time>
      </trkpt>
      <trkpt lat="48.27610373497009" lon="17.06302285194397">
        <ele>203.92</ele>
        <time>2023-06-13T14:41:10.115Z</time>
      </trkpt>
      <trkpt lat="48.2759340852499" lon="17.063276823610067">
        <ele>204.46</ele>
        <time>2023-06-13T14:41:10.345Z</time>
      </trkpt>
      <trkpt lat="48.27593115158379" lon="17.06328134983778">
        <ele>204.48</ele>
        <time>2023-06-13T14:41:10.575Z</time>
      </trkpt>
      <trkpt lat="48.275931319221854" lon="17.06328126601875">
        <ele>204.49</ele>
        <time>2023-06-13T14:41:10.805Z</time>
      </trkpt>
      <trkpt lat="48.27593157067895" lon="17.063281014561653">
        <ele>204.49</ele>
        <time>2023-06-13T14:41:11.035Z</time>
      </trkpt>
      <trkpt lat="48.27593173831701" lon="17.06328084692359">
        <ele>204.5</ele>
        <time>2023-06-13T14:41:11.265Z</time>
      </trkpt>
      <trkpt lat="48.27593173831701" lon="17.063280763104558">
        <ele>204.45</ele>
        <time>2023-06-13T14:41:11.495Z</time>
      </trkpt>
      <trkpt lat="48.27593173831701" lon="17.06328084692359">
        <ele>205.34</ele>
        <time>2023-06-13T14:41:11.725Z</time>
      </trkpt>
      <trkpt lat="48.27591061592102" lon="17.063312530517578">
        <ele>205.75</ele>
        <time>2023-06-13T14:41:11.956Z</time>
      </trkpt>
      <trkpt lat="48.27567458152771" lon="17.063602209091187">
        <ele>206.22</ele>
        <time>2023-06-13T14:41:12.193Z</time>
      </trkpt>
      <trkpt lat="48.27512741088867" lon="17.064170837402344">
        <ele>207.05</ele>
        <time>2023-06-13T14:41:12.443Z</time>
      </trkpt>
      <trkpt lat="48.27452667988837" lon="17.06477165222168">
        <ele>207.85</ele>
        <time>2023-06-13T14:41:12.708Z</time>
      </trkpt>
      <trkpt lat="48.274526596069336" lon="17.06477165222168">
        <ele>208.51</ele>
        <time>2023-06-13T14:41:12.973Z</time>
      </trkpt>
      <trkpt lat="48.27344298362732" lon="17.065908908843994">
        <ele>209.48</ele>
        <time>2023-06-13T14:41:13.264Z</time>
      </trkpt>
      <trkpt lat="48.272552490234375" lon="17.066681385040283">
        <ele>210.53</ele>
        <time>2023-06-13T14:41:13.576Z</time>
      </trkpt>
      <trkpt lat="48.2724130153656" lon="17.066831588745117">
        <ele>210.97</ele>
        <time>2023-06-13T14:41:13.891Z</time>
      </trkpt>
      <trkpt lat="48.27160835266113" lon="17.067872285842896">
        <ele>211.84</ele>
        <time>2023-06-13T14:41:14.227Z</time>
      </trkpt>
      <trkpt lat="48.271039724349976" lon="17.06847310066223">
        <ele>212.65</ele>
        <time>2023-06-13T14:41:14.577Z</time>
      </trkpt>
      <trkpt lat="48.27073931694031" lon="17.068816423416138">
        <ele>213.16</ele>
        <time>2023-06-13T14:41:14.935Z</time>
      </trkpt>
      <trkpt lat="48.27011704444885" lon="17.069642543792725">
        <ele>214.28</ele>
        <time>2023-06-13T14:41:15.309Z</time>
      </trkpt>
      <trkpt lat="48.26921582221985" lon="17.070897817611694">
        <ele>214.81</ele>
        <time>2023-06-13T14:41:15.708Z</time>
      </trkpt>
      <trkpt lat="48.26917299069464" lon="17.07096219062805">
        <ele>215.46</ele>
        <time>2023-06-13T14:41:16.108Z</time>
      </trkpt>
      <trkpt lat="48.26862573623657" lon="17.0717990398407">
        <ele>216.6</ele>
        <time>2023-06-13T14:41:16.524Z</time>
      </trkpt>
      <trkpt lat="48.268293142318726" lon="17.07229256629944">
        <ele>217.27</ele>
        <time>2023-06-13T14:41:16.949Z</time>
      </trkpt>
      <trkpt lat="48.268057107925415" lon="17.072603702545166">
        <ele>218.01</ele>
        <time>2023-06-13T14:41:17.381Z</time>
      </trkpt>
      <trkpt lat="48.26738119125366" lon="17.073429822921753">
        <ele>219.22</ele>
        <time>2023-06-13T14:41:17.830Z</time>
      </trkpt>
      <trkpt lat="48.267284631729126" lon="17.073580026626587">
        <ele>219.98</ele>
        <time>2023-06-13T14:41:18.282Z</time>
      </trkpt>
      <trkpt lat="48.26718807220459" lon="17.07377314567566">
        <ele>220.77</ele>
        <time>2023-06-13T14:41:18.737Z</time>
      </trkpt>
      <trkpt lat="48.267070138826966" lon="17.07404136657715">
        <ele>221.58</ele>
        <time>2023-06-13T14:41:19.196Z</time>
      </trkpt>
      <trkpt lat="48.266834020614624" lon="17.07472801208496">
        <ele>222.36</ele>
        <time>2023-06-13T14:41:19.666Z</time>
      </trkpt>
      <trkpt lat="48.26675891876221" lon="17.074931859970093">
        <ele>223.19</ele>
        <time>2023-06-13T14:41:20.139Z</time>
      </trkpt>
      <trkpt lat="48.266136730089784" lon="17.07625150680542">
        <ele>224.27</ele>
        <time>2023-06-13T14:41:20.633Z</time>
      </trkpt>
      <trkpt lat="48.26613664627075" lon="17.07625150680542">
        <ele>225.09</ele>
        <time>2023-06-13T14:41:21.127Z</time>
      </trkpt>
      <trkpt lat="48.26599717140198" lon="17.076573371887207">
        <ele>226.06</ele>
        <time>2023-06-13T14:41:21.627Z</time>
      </trkpt>
      <trkpt lat="48.26577186584473" lon="17.077174186706543">
        <ele>227.07</ele>
        <time>2023-06-13T14:41:22.136Z</time>
      </trkpt>
      <trkpt lat="48.265589559450746" lon="17.077796459197998">
        <ele>228.05</ele>
        <time>2023-06-13T14:41:22.654Z</time>
      </trkpt>
      <trkpt lat="48.265589475631714" lon="17.077796459197998">
        <ele>228.81</ele>
        <time>2023-06-13T14:41:23.172Z</time>
      </trkpt>
      <trkpt lat="48.265321254730225" lon="17.079083919525146">
        <ele>229.7</ele>
        <time>2023-06-13T14:41:23.708Z</time>
      </trkpt>
      <trkpt lat="48.265278339385986" lon="17.079319953918457">
        <ele>230.5</ele>
        <time>2023-06-13T14:41:24.247Z</time>
      </trkpt>
      <trkpt lat="48.26523542404175" lon="17.079427242279053">
        <ele>231.29</ele>
        <time>2023-06-13T14:41:24.788Z</time>
      </trkpt>
      <trkpt lat="48.265074575319886" lon="17.079695463180542">
        <ele>232.05</ele>
        <time>2023-06-13T14:41:25.334Z</time>
      </trkpt>
      <trkpt lat="48.26499938964844" lon="17.079942226409912">
        <ele>232.87</ele>
        <time>2023-06-13T14:41:25.883Z</time>
      </trkpt>
      <trkpt lat="48.26460242271423" lon="17.08151936531067">
        <ele>233.83</ele>
        <time>2023-06-13T14:41:26.455Z</time>
      </trkpt>
      <trkpt lat="48.26424837112427" lon="17.08274245262146">
        <ele>234.68</ele>
        <time>2023-06-13T14:41:27.045Z</time>
      </trkpt>
      <trkpt lat="48.26418399810791" lon="17.082828283309937">
        <ele>234.53</ele>
        <time>2023-06-13T14:41:27.636Z</time>
      </trkpt>
      <trkpt lat="48.26371544972062" lon="17.083243187516928">
        <ele>233.8</ele>
        <time>2023-06-13T14:41:28.238Z</time>
      </trkpt>
      <trkpt lat="48.26371159404516" lon="17.08324670791626">
        <ele>233.8</ele>
        <time>2023-06-13T14:41:28.840Z</time>
      </trkpt>
      <trkpt lat="48.26371159404516" lon="17.08324679173529">
        <ele>233.8</ele>
        <time>2023-06-13T14:41:29.442Z</time>
      </trkpt>
      <trkpt lat="48.26371184550226" lon="17.08324670791626">
        <ele>233.8</ele>
        <time>2023-06-13T14:41:30.044Z</time>
      </trkpt>
      <trkpt lat="48.26371192932129" lon="17.08324670791626">
        <ele>233.8</ele>
        <time>2023-06-13T14:41:30.646Z</time>
      </trkpt>
      <trkpt lat="48.26373338699341" lon="17.082914113998413">
        <ele>230.73</ele>
        <time>2023-06-13T14:41:31.253Z</time>
      </trkpt>
      <trkpt lat="48.263787031173706" lon="17.082345485687256">
        <ele>230.26</ele>
        <time>2023-06-13T14:41:31.867Z</time>
      </trkpt>
      <trkpt lat="48.26387286186218" lon="17.081819772720337">
        <ele>230.04</ele>
        <time>2023-06-13T14:41:32.489Z</time>
      </trkpt>
      <trkpt lat="48.26386213302612" lon="17.08145499229431">
        <ele>229.92</ele>
        <time>2023-06-13T14:41:33.116Z</time>
      </trkpt>
      <trkpt lat="48.263808488845825" lon="17.081304788589478">
        <ele>229.92</ele>
        <time>2023-06-13T14:41:33.745Z</time>
      </trkpt>
      <trkpt lat="48.26373338699341" lon="17.081197500228882">
        <ele>230.04</ele>
        <time>2023-06-13T14:41:34.376Z</time>
      </trkpt>
      <trkpt lat="48.2634437084198" lon="17.08050012588501">
        <ele>230.29</ele>
        <time>2023-06-13T14:41:35.018Z</time>
      </trkpt>
      <trkpt lat="48.26337933540344" lon="17.080371379852295">
        <ele>230.71</ele>
        <time>2023-06-13T14:41:35.662Z</time>
      </trkpt>
      <trkpt lat="48.263078927993774" lon="17.08002805709839">
        <ele>231.29</ele>
        <time>2023-06-13T14:41:36.314Z</time>
      </trkpt>
      <trkpt lat="48.262553215026855" lon="17.079330682754517">
        <ele>232.35</ele>
        <time>2023-06-13T14:41:36.980Z</time>
      </trkpt>
      <trkpt lat="48.262306451797485" lon="17.079319953918457">
        <ele>233.55</ele>
        <time>2023-06-13T14:41:37.651Z</time>
      </trkpt>
      <trkpt lat="48.26219916343689" lon="17.079373598098755">
        <ele>234.78</ele>
        <time>2023-06-13T14:41:38.324Z</time>
      </trkpt>
      <trkpt lat="48.2618772983551" lon="17.079674005508423">
        <ele>236.33</ele>
        <time>2023-06-13T14:41:39.004Z</time>
      </trkpt>
      <trkpt lat="48.26174855232239" lon="17.0797061920166">
        <ele>237.93</ele>
        <time>2023-06-13T14:41:39.687Z</time>
      </trkpt>
      <trkpt lat="48.26161980628967" lon="17.079663276672363">
        <ele>239.72</ele>
        <time>2023-06-13T14:41:40.373Z</time>
      </trkpt>
      <trkpt lat="48.261330127716064" lon="17.079663276672363">
        <ele>241.66</ele>
        <time>2023-06-13T14:41:41.064Z</time>
      </trkpt>
      <trkpt lat="48.26118000783026" lon="17.0797598361969">
        <ele>243.78</ele>
        <time>2023-06-13T14:41:41.759Z</time>
      </trkpt>
      <trkpt lat="48.2609760761261" lon="17.079942226409912">
        <ele>246.33</ele>
        <time>2023-06-13T14:41:42.459Z</time>
      </trkpt>
      <trkpt lat="48.260793685913086" lon="17.080049514770508">
        <ele>248.98</ele>
        <time>2023-06-13T14:41:43.162Z</time>
      </trkpt>
      <trkpt lat="48.2602144125849" lon="17.080382108688354">
        <ele>252.1</ele>
        <time>2023-06-13T14:41:43.878Z</time>
      </trkpt>
      <trkpt lat="48.26021432876587" lon="17.080382108688354">
        <ele>254.01</ele>
        <time>2023-06-13T14:41:44.594Z</time>
      </trkpt>
      <trkpt lat="48.25996764935553" lon="17.080661058425903">
        <ele>256.25</ele>
        <time>2023-06-13T14:41:45.316Z</time>
      </trkpt>
      <trkpt lat="48.25987720862031" lon="17.08076499402523">
        <ele>257.75</ele>
        <time>2023-06-13T14:41:46.040Z</time>
      </trkpt>
      <trkpt lat="48.259886680170894" lon="17.080783769488335">
        <ele>258.48</ele>
        <time>2023-06-13T14:41:46.765Z</time>
      </trkpt>
      <trkpt lat="48.25988944619894" lon="17.080789133906364">
        <ele>258.69</ele>
        <time>2023-06-13T14:41:47.490Z</time>
      </trkpt>
      <trkpt lat="48.259889697656035" lon="17.080789553001523">
        <ele>258.71</ele>
        <time>2023-06-13T14:41:48.215Z</time>
      </trkpt>
      <trkpt lat="48.25988978147507" lon="17.080789636820555">
        <ele>258.72</ele>
        <time>2023-06-13T14:41:48.940Z</time>
      </trkpt>
      <trkpt lat="48.25988994911313" lon="17.08078997209668">
        <ele>258.74</ele>
        <time>2023-06-13T14:41:49.665Z</time>
      </trkpt>
      <trkpt lat="48.25987720862031" lon="17.08076499402523">
        <ele>258.05</ele>
        <time>2023-06-13T14:41:50.390Z</time>
      </trkpt>
      <trkpt lat="48.25975298881531" lon="17.080907821655273">
        <ele>259.13</ele>
        <time>2023-06-13T14:41:51.118Z</time>
      </trkpt>
      <trkpt lat="48.259334564208984" lon="17.081304788589478">
        <ele>260.94</ele>
        <time>2023-06-13T14:41:51.856Z</time>
      </trkpt>
      <trkpt lat="48.25921654701233" lon="17.08149790763855">
        <ele>262.84</ele>
        <time>2023-06-13T14:41:52.598Z</time>
      </trkpt>
      <trkpt lat="48.25900197029114" lon="17.081894874572754">
        <ele>265.13</ele>
        <time>2023-06-13T14:41:53.347Z</time>
      </trkpt>
      <trkpt lat="48.258787393569946" lon="17.08202362060547">
        <ele>267.17</ele>
        <time>2023-06-13T14:41:54.100Z</time>
      </trkpt>
      <trkpt lat="48.258583545684814" lon="17.08227038383484">
        <ele>269.08</ele>
        <time>2023-06-13T14:41:54.858Z</time>
      </trkpt>
      <trkpt lat="48.258379781618714" lon="17.082324028015137">
        <ele>270.86</ele>
        <time>2023-06-13T14:41:55.621Z</time>
      </trkpt>
      <trkpt lat="48.258111560717225" lon="17.082570791244507">
        <ele>272.69</ele>
        <time>2023-06-13T14:41:56.390Z</time>
      </trkpt>
      <trkpt lat="48.25811147689819" lon="17.082570791244507">
        <ele>274.61</ele>
        <time>2023-06-13T14:41:57.159Z</time>
      </trkpt>
      <trkpt lat="48.25750001706183" lon="17.083171606063843">
        <ele>277.44</ele>
        <time>2023-06-13T14:41:57.942Z</time>
      </trkpt>
      <trkpt lat="48.25740337371826" lon="17.08326816558838">
        <ele>280.04</ele>
        <time>2023-06-13T14:41:58.728Z</time>
      </trkpt>
      <trkpt lat="48.25727462768555" lon="17.083300352096558">
        <ele>282.84</ele>
        <time>2023-06-13T14:41:59.516Z</time>
      </trkpt>
      <trkpt lat="48.25694211758673" lon="17.083311080932617">
        <ele>286.01</ele>
        <time>2023-06-13T14:42:00.311Z</time>
      </trkpt>
      <trkpt lat="48.25657733716071" lon="17.083375453948975">
        <ele>289.47</ele>
        <time>2023-06-13T14:42:01.113Z</time>
      </trkpt>
      <trkpt lat="48.25654515065253" lon="17.083386182785034">
        <ele>292.8</ele>
        <time>2023-06-13T14:42:01.916Z</time>
      </trkpt>
      <trkpt lat="48.25652369298041" lon="17.083396911621094">
        <ele>296.2</ele>
        <time>2023-06-13T14:42:02.720Z</time>
      </trkpt>
      <trkpt lat="48.25597643852234" lon="17.08369731903076">
        <ele>300.49</ele>
        <time>2023-06-13T14:42:03.535Z</time>
      </trkpt>
      <trkpt lat="48.25546145439148" lon="17.084083557128906">
        <ele>304.93</ele>
        <time>2023-06-13T14:42:04.362Z</time>
      </trkpt>
      <trkpt lat="48.25490355491638" lon="17.084619998931885">
        <ele>309.64</ele>
        <time>2023-06-13T14:42:05.202Z</time>
      </trkpt>
      <trkpt lat="48.25445294380188" lon="17.085156440734863">
        <ele>313.81</ele>
        <time>2023-06-13T14:42:06.054Z</time>
      </trkpt>
      <trkpt lat="48.253605365753174" lon="17.085821628570557">
        <ele>318.18</ele>
        <time>2023-06-13T14:42:06.925Z</time>
      </trkpt>
      <trkpt lat="48.252553939819336" lon="17.086411714553833">
        <ele>322.46</ele>
        <time>2023-06-13T14:42:07.818Z</time>
      </trkpt>
      <trkpt lat="48.25228571891785" lon="17.08650827407837">
        <ele>325.96</ele>
        <time>2023-06-13T14:42:08.717Z</time>
      </trkpt>
      <trkpt lat="48.25222142972052" lon="17.08650827407837">
        <ele>329.03</ele>
        <time>2023-06-13T14:42:09.617Z</time>
      </trkpt>
      <trkpt lat="48.252060413360596" lon="17.08648681640625">
        <ele>331.82</ele>
        <time>2023-06-13T14:42:10.520Z</time>
      </trkpt>
      <trkpt lat="48.251835107803345" lon="17.086336612701416">
        <ele>334.27</ele>
        <time>2023-06-13T14:42:11.428Z</time>
      </trkpt>
      <trkpt lat="48.2512451056391" lon="17.08572506904602">
        <ele>336.75</ele>
        <time>2023-06-13T14:42:12.351Z</time>
      </trkpt>
      <trkpt lat="48.25103052891791" lon="17.08551049232483">
        <ele>339.04</ele>
        <time>2023-06-13T14:42:13.279Z</time>
      </trkpt>
      <trkpt lat="48.250815868377686" lon="17.085285186767578">
        <ele>341.0</ele>
        <time>2023-06-13T14:42:14.212Z</time>
      </trkpt>
      <trkpt lat="48.25046190060675" lon="17.08497405052185">
        <ele>342.98</ele>
        <time>2023-06-13T14:42:15.153Z</time>
      </trkpt>
      <trkpt lat="48.24982889927924" lon="17.08446979522705">
        <ele>345.3</ele>
        <time>2023-06-13T14:42:16.108Z</time>
      </trkpt>
      <trkpt lat="48.24964642524719" lon="17.084330320358276">
        <ele>347.02</ele>
        <time>2023-06-13T14:42:17.068Z</time>
      </trkpt>
      <trkpt lat="48.2494854927063" lon="17.084126472473145">
        <ele>348.47</ele>
        <time>2023-06-13T14:42:18.032Z</time>
      </trkpt>
      <trkpt lat="48.24924945831299" lon="17.08376169204712">
        <ele>349.75</ele>
        <time>2023-06-13T14:42:19.003Z</time>
      </trkpt>
      <trkpt lat="48.24918508529663" lon="17.084115743637085">
        <ele>351.24</ele>
        <time>2023-06-13T14:42:19.979Z</time>
      </trkpt>
      <trkpt lat="48.249088609591126" lon="17.084351778030396">
        <ele>352.64</ele>
        <time>2023-06-13T14:42:20.958Z</time>
      </trkpt>
      <trkpt lat="48.24894905090332" lon="17.084577083587646">
        <ele>354.19</ele>
        <time>2023-06-13T14:42:21.941Z</time>
      </trkpt>
      <trkpt lat="48.24848771095276" lon="17.0857036113739">
        <ele>356.24</ele>
        <time>2023-06-13T14:42:22.942Z</time>
      </trkpt>
      <trkpt lat="48.2483696937561" lon="17.085832357406616">
        <ele>357.41</ele>
        <time>2023-06-13T14:42:23.946Z</time>
      </trkpt>
      <trkpt lat="48.248090744018555" lon="17.085918188095093">
        <ele>358.57</ele>
        <time>2023-06-13T14:42:24.956Z</time>
      </trkpt>
      <trkpt lat="48.24796199798584" lon="17.08599328994751">
        <ele>359.78</ele>
        <time>2023-06-13T14:42:25.968Z</time>
      </trkpt>
      <trkpt lat="48.247833251953125" lon="17.086143493652344">
        <ele>361.0</ele>
        <time>2023-06-13T14:42:26.984Z</time>
      </trkpt>
      <trkpt lat="48.247801065444946" lon="17.08627223968506">
        <ele>362.16</ele>
        <time>2023-06-13T14:42:28.001Z</time>
      </trkpt>
      <trkpt lat="48.24769377708435" lon="17.086637020111084">
        <ele>363.49</ele>
        <time>2023-06-13T14:42:29.024Z</time>
      </trkpt>
      <trkpt lat="48.24748992919922" lon="17.087044715881348">
        <ele>364.45</ele>
        <time>2023-06-13T14:42:30.054Z</time>
      </trkpt>
      <trkpt lat="48.24726462364197" lon="17.087345123291016">
        <ele>364.7</ele>
        <time>2023-06-13T14:42:31.090Z</time>
      </trkpt>
      <trkpt lat="48.24692130088806" lon="17.087613344192505">
        <ele>364.68</ele>
        <time>2023-06-13T14:42:32.133Z</time>
      </trkpt>
      <trkpt lat="48.24663162231445" lon="17.087903022766113">
        <ele>364.72</ele>
        <time>2023-06-13T14:42:33.183Z</time>
      </trkpt>
      <trkpt lat="48.24637413024902" lon="17.088310718536377">
        <ele>364.64</ele>
        <time>2023-06-13T14:42:34.241Z</time>
      </trkpt>
      <trkpt lat="48.246116638183594" lon="17.08845019340515">
        <ele>363.44</ele>
        <time>2023-06-13T14:42:35.304Z</time>
      </trkpt>
      <trkpt lat="48.24569821357727" lon="17.088632583618164">
        <ele>361.67</ele>
        <time>2023-06-13T14:42:36.376Z</time>
      </trkpt>
      <trkpt lat="48.245344161987305" lon="17.088868618011475">
        <ele>359.35</ele>
        <time>2023-06-13T14:42:37.456Z</time>
      </trkpt>
      <trkpt lat="48.24501156806946" lon="17.089051008224487">
        <ele>356.44</ele>
        <time>2023-06-13T14:42:38.543Z</time>
      </trkpt>
      <trkpt lat="48.2444429397583" lon="17.089544534683228">
        <ele>353.13</ele>
        <time>2023-06-13T14:42:39.643Z</time>
      </trkpt>
      <trkpt lat="48.243820667266846" lon="17.09001660346985">
        <ele>349.44</ele>
        <time>2023-06-13T14:42:40.757Z</time>
      </trkpt>
      <trkpt lat="48.24371337890625" lon="17.090134620666504">
        <ele>346.52</ele>
        <time>2023-06-13T14:42:41.874Z</time>
      </trkpt>
      <trkpt lat="48.24353098869324" lon="17.090435028076172">
        <ele>343.32</ele>
        <time>2023-06-13T14:42:42.996Z</time>
      </trkpt>
      <trkpt lat="48.24345588684082" lon="17.09051012992859">
        <ele>340.27</ele>
        <time>2023-06-13T14:42:44.120Z</time>
      </trkpt>
      <trkpt lat="48.243327140808105" lon="17.090542316436768">
        <ele>337.14</ele>
        <time>2023-06-13T14:42:45.247Z</time>
      </trkpt>
      <trkpt lat="48.242812156677246" lon="17.090574502944946">
        <ele>333.87</ele>
        <time>2023-06-13T14:42:46.384Z</time>
      </trkpt>
      <trkpt lat="48.24244360439479" lon="17.09175081923604">
        <ele>332.53</ele>
        <time>2023-06-13T14:42:47.538Z</time>
      </trkpt>
      <trkpt lat="48.242441676557064" lon="17.091757021844387">
        <ele>332.53</ele>
        <time>2023-06-13T14:42:48.692Z</time>
      </trkpt>
      <trkpt lat="48.24244234710932" lon="17.091755094006658">
        <ele>332.53</ele>
        <time>2023-06-13T14:42:49.846Z</time>
      </trkpt>
      <trkpt lat="48.2424431014806" lon="17.0917528308928">
        <ele>332.53</ele>
        <time>2023-06-13T14:42:51.000Z</time>
      </trkpt>
      <trkpt lat="48.24244385585189" lon="17.091750567778945">
        <ele>332.53</ele>
        <time>2023-06-13T14:42:52.154Z</time>
      </trkpt>
      <trkpt lat="48.24220061302185" lon="17.092527151107788">
        <ele>331.96</ele>
        <time>2023-06-13T14:42:53.320Z</time>
      </trkpt>
      <trkpt lat="48.24205040931702" lon="17.092849016189575">
        <ele>334.14</ele>
        <time>2023-06-13T14:42:54.491Z</time>
      </trkpt>
      <trkpt lat="48.24190020561218" lon="17.093149423599243">
        <ele>336.36</ele>
        <time>2023-06-13T14:42:55.667Z</time>
      </trkpt>
      <trkpt lat="48.24170708656311" lon="17.093385457992554">
        <ele>338.48</ele>
        <time>2023-06-13T14:42:56.848Z</time>
      </trkpt>
      <trkpt lat="48.24150323867798" lon="17.093578577041626">
        <ele>340.23</ele>
        <time>2023-06-13T14:42:58.034Z</time>
      </trkpt>
      <trkpt lat="48.24123501777649" lon="17.09369659423828">
        <ele>341.58</ele>
        <time>2023-06-13T14:42:59.226Z</time>
      </trkpt>
      <trkpt lat="48.240816593170166" lon="17.093857526779175">
        <ele>343.0</ele>
        <time>2023-06-13T14:43:00.426Z</time>
      </trkpt>
      <trkpt lat="48.24063420295715" lon="17.09397554397583">
        <ele>344.4</ele>
        <time>2023-06-13T14:43:01.630Z</time>
      </trkpt>
      <trkpt lat="48.240323066711426" lon="17.094329595565796">
        <ele>345.86</ele>
        <time>2023-06-13T14:43:02.842Z</time>
      </trkpt>
      <trkpt lat="48.24020504951477" lon="17.094554901123047">
        <ele>347.23</ele>
        <time>2023-06-13T14:43:04.058Z</time>
      </trkpt>
      <trkpt lat="48.2402051333338" lon="17.094554901123047">
        <ele>348.53</ele>
        <time>2023-06-13T14:43:05.274Z</time>
      </trkpt>
      <trkpt lat="48.24005484580994" lon="17.09501624107361">
        <ele>350.03</ele>
        <time>2023-06-13T14:43:06.497Z</time>
      </trkpt>
      <trkpt lat="48.23996909894049" lon="17.09524154663086">
        <ele>351.42</ele>
        <time>2023-06-13T14:43:07.723Z</time>
      </trkpt>
      <trkpt lat="48.23977589607239" lon="17.095810174942017">
        <ele>353.46</ele>
        <time>2023-06-13T14:43:08.958Z</time>
      </trkpt>
      <trkpt lat="48.23951840400696" lon="17.09625005722046">
        <ele>355.66</ele>
        <time>2023-06-13T14:43:10.201Z</time>
      </trkpt>
      <trkpt lat="48.23919653892517" lon="17.096636295318604">
        <ele>357.8</ele>
        <time>2023-06-13T14:43:11.452Z</time>
      </trkpt>
      <trkpt lat="48.23864936828613" lon="17.097086906433105">
        <ele>359.43</ele>
        <time>2023-06-13T14:43:12.715Z</time>
      </trkpt>
      <trkpt lat="48.238112926483154" lon="17.097558975219727">
        <ele>361.19</ele>
        <time>2023-06-13T14:43:13.991Z</time>
      </trkpt>
      <trkpt lat="48.238113010302186" lon="17.097558975219727">
        <ele>362.6</ele>
        <time>2023-06-13T14:43:15.267Z</time>
      </trkpt>
      <trkpt lat="48.23793053627014" lon="17.09770917892456">
        <ele>363.88</ele>
        <time>2023-06-13T14:43:16.547Z</time>
      </trkpt>
      <trkpt lat="48.23774814605713" lon="17.097827196121216">
        <ele>365.23</ele>
        <time>2023-06-13T14:43:17.831Z</time>
      </trkpt>
      <trkpt lat="48.237104415893555" lon="17.098052501678467">
        <ele>367.05</ele>
        <time>2023-06-13T14:43:19.128Z</time>
      </trkpt>
      <trkpt lat="48.23697566986084" lon="17.098095417022705">
        <ele>368.23</ele>
        <time>2023-06-13T14:43:20.428Z</time>
      </trkpt>
      <trkpt lat="48.236825466156006" lon="17.09819197654724">
        <ele>369.3</ele>
        <time>2023-06-13T14:43:21.731Z</time>
      </trkpt>
      <trkpt lat="48.23675036430359" lon="17.098309993743896">
        <ele>370.19</ele>
        <time>2023-06-13T14:43:23.036Z</time>
      </trkpt>
      <trkpt lat="48.23667526245117" lon="17.09844946861267">
        <ele>371.01</ele>
        <time>2023-06-13T14:43:24.344Z</time>
      </trkpt>
      <trkpt lat="48.23640704154968" lon="17.099071741104126">
        <ele>371.65</ele>
        <time>2023-06-13T14:43:25.662Z</time>
      </trkpt>
      <trkpt lat="48.23617100715637" lon="17.099425792694092">
        <ele>372.77</ele>
        <time>2023-06-13T14:43:26.986Z</time>
      </trkpt>
      <trkpt lat="48.23594578541815" lon="17.09970474243164">
        <ele>373.87</ele>
        <time>2023-06-13T14:43:28.316Z</time>
      </trkpt>
      <trkpt lat="48.23579558171332" lon="17.099887132644653">
        <ele>375.05</ele>
        <time>2023-06-13T14:43:29.650Z</time>
      </trkpt>
      <trkpt lat="48.23526978492737" lon="17.100573778152466">
        <ele>376.47</ele>
        <time>2023-06-13T14:43:30.998Z</time>
      </trkpt>
      <trkpt lat="48.23500156402588" lon="17.10100293159485">
        <ele>377.5</ele>
        <time>2023-06-13T14:43:32.354Z</time>
      </trkpt>
      <trkpt lat="48.23473870754242" lon="17.101360000669956">
        <ele>377.88</ele>
        <time>2023-06-13T14:43:33.717Z</time>
      </trkpt>
      <trkpt lat="48.234733175486326" lon="17.101367712020874">
        <ele>377.89</ele>
        <time>2023-06-13T14:43:35.080Z</time>
      </trkpt>
      <trkpt lat="48.234733091667295" lon="17.101367879658937">
        <ele>377.9</ele>
        <time>2023-06-13T14:43:36.443Z</time>
      </trkpt>
      <trkpt lat="48.23473325930536" lon="17.101367795839906">
        <ele>377.91</ele>
        <time>2023-06-13T14:43:37.806Z</time>
      </trkpt>
      <trkpt lat="48.23473334312439" lon="17.101367712020874">
        <ele>378.58</ele>
        <time>2023-06-13T14:43:39.169Z</time>
      </trkpt>
      <trkpt lat="48.23503375053406" lon="17.102075815200806">
        <ele>379.24</ele>
        <time>2023-06-13T14:43:40.543Z</time>
      </trkpt>
      <trkpt lat="48.235119581222534" lon="17.10222601890564">
        <ele>379.58</ele>
        <time>2023-06-13T14:43:41.920Z</time>
      </trkpt>
      <trkpt lat="48.23492646217346" lon="17.102558612823486">
        <ele>379.55</ele>
        <time>2023-06-13T14:43:43.303Z</time>
      </trkpt>
      <trkpt lat="48.234840631484985" lon="17.10267663002014">
        <ele>379.5</ele>
        <time>2023-06-13T14:43:44.688Z</time>
      </trkpt>
      <trkpt lat="48.23482898063958" lon="17.102687107399106">
        <ele>379.45</ele>
        <time>2023-06-13T14:43:46.073Z</time>
      </trkpt>
      <trkpt lat="48.234822526574135" lon="17.102693058550358">
        <ele>379.43</ele>
        <time>2023-06-13T14:43:47.459Z</time>
      </trkpt>
      <trkpt lat="48.234822023659945" lon="17.102693561464548">
        <ele>379.43</ele>
        <time>2023-06-13T14:43:48.845Z</time>
      </trkpt>
      <trkpt lat="48.23482177220285" lon="17.102693896740675">
        <ele>379.43</ele>
        <time>2023-06-13T14:43:50.231Z</time>
      </trkpt>
      <trkpt lat="48.23471188545227" lon="17.102794647216797">
        <ele>379.03</ele>
        <time>2023-06-13T14:43:51.619Z</time>
      </trkpt>
      <trkpt lat="48.234572410583496" lon="17.102901935577393">
        <ele>379.11</ele>
        <time>2023-06-13T14:43:53.010Z</time>
      </trkpt>
      <trkpt lat="48.23467969894409" lon="17.10297703742981">
        <ele>379.11</ele>
        <time>2023-06-13T14:43:54.404Z</time>
      </trkpt>
      <trkpt lat="48.23476552963257" lon="17.103084325790405">
        <ele>379.22</ele>
        <time>2023-06-13T14:43:55.800Z</time>
      </trkpt>
      <trkpt lat="48.23479771614075" lon="17.103148698806763">
        <ele>379.26</ele>
        <time>2023-06-13T14:43:57.197Z</time>
      </trkpt>
      <trkpt lat="48.23479771614075" lon="17.103277444839478">
        <ele>379.27</ele>
        <time>2023-06-13T14:43:58.596Z</time>
      </trkpt>
      <trkpt lat="48.23479771614075" lon="17.103384733200073">
        <ele>379.26</ele>
        <time>2023-06-13T14:43:59.996Z</time>
      </trkpt>
      <trkpt lat="48.23452949523926" lon="17.104361057281494">
        <ele>378.83</ele>
        <time>2023-06-13T14:44:01.410Z</time>
      </trkpt>
      <trkpt lat="48.23450803756714" lon="17.104554176330566">
        <ele>378.76</ele>
        <time>2023-06-13T14:44:02.827Z</time>
      </trkpt>
      <trkpt lat="48.23449730873108" lon="17.105262279510498">
        <ele>378.87</ele>
        <time>2023-06-13T14:44:04.253Z</time>
      </trkpt>
      <trkpt lat="48.2345187664032" lon="17.105573415756226">
        <ele>379.2</ele>
        <time>2023-06-13T14:44:05.683Z</time>
      </trkpt>
      <trkpt lat="48.23454022407532" lon="17.105712890625">
        <ele>379.48</ele>
        <time>2023-06-13T14:44:07.115Z</time>
      </trkpt>
      <trkpt lat="48.234593868255615" lon="17.105830907821655">
        <ele>379.87</ele>
        <time>2023-06-13T14:44:08.549Z</time>
      </trkpt>
      <trkpt lat="48.23477625846863" lon="17.105916738510132">
        <ele>380.41</ele>
        <time>2023-06-13T14:44:09.987Z</time>
      </trkpt>
      <trkpt lat="48.234851360321045" lon="17.10593819618225">
        <ele>381.0</ele>
        <time>2023-06-13T14:44:11.427Z</time>
      </trkpt>
      <trkpt lat="48.23519468307495" lon="17.10595965385437">
        <ele>381.81</ele>
        <time>2023-06-13T14:44:12.874Z</time>
      </trkpt>
      <trkpt lat="48.23550581932068" lon="17.106034755706787">
        <ele>382.55</ele>
        <time>2023-06-13T14:44:14.327Z</time>
      </trkpt>
      <trkpt lat="48.23628902435303" lon="17.106410264968872">
        <ele>383.31</ele>
        <time>2023-06-13T14:44:15.796Z</time>
      </trkpt>
      <trkpt lat="48.23644995689392" lon="17.10643172264099">
        <ele>383.74</ele>
        <time>2023-06-13T14:44:17.269Z</time>
      </trkpt>
      <trkpt lat="48.2365357875824" lon="17.106399536132812">
        <ele>384.18</ele>
        <time>2023-06-13T14:44:18.743Z</time>
      </trkpt>
      <trkpt lat="48.23657048866153" lon="17.106399536132812">
        <ele>384.41</ele>
        <time>2023-06-13T14:44:20.218Z</time>
      </trkpt>
      <trkpt lat="48.23657803237438" lon="17.106399536132812">
        <ele>384.46</ele>
        <time>2023-06-13T14:44:21.693Z</time>
      </trkpt>
      <trkpt lat="48.23657878674567" lon="17.106399536132812">
        <ele>384.47</ele>
        <time>2023-06-13T14:44:23.168Z</time>
      </trkpt>
      <trkpt lat="48.236579205840826" lon="17.106399536132812">
        <ele>384.48</ele>
        <time>2023-06-13T14:44:24.643Z</time>
      </trkpt>
      <trkpt lat="48.236621618270874" lon="17.106399536132812">
        <ele>383.2</ele>
        <time>2023-06-13T14:44:26.119Z</time>
      </trkpt>
      <trkpt lat="48.23673963546753" lon="17.106549739837646">
        <ele>382.3</ele>
        <time>2023-06-13T14:44:27.598Z</time>
      </trkpt>
      <trkpt lat="48.236879110336304" lon="17.106592655181885">
        <ele>381.53</ele>
        <time>2023-06-13T14:44:29.080Z</time>
      </trkpt>
      <trkpt lat="48.237329721450806" lon="17.106646299362183">
        <ele>380.52</ele>
        <time>2023-06-13T14:44:30.571Z</time>
      </trkpt>
      <trkpt lat="48.23767304420471" lon="17.106635570526123">
        <ele>379.85</ele>
        <time>2023-06-13T14:44:32.069Z</time>
      </trkpt>
      <trkpt lat="48.23796272277832" lon="17.106581926345825">
        <ele>379.18</ele>
        <time>2023-06-13T14:44:33.573Z</time>
      </trkpt>
      <trkpt lat="48.238112926483154" lon="17.106592655181885">
        <ele>378.57</ele>
        <time>2023-06-13T14:44:35.080Z</time>
      </trkpt>
      <trkpt lat="48.238348960876465" lon="17.106657028198242">
        <ele>377.95</ele>
        <time>2023-06-13T14:44:36.592Z</time>
      </trkpt>
      <trkpt lat="48.238563537597656" lon="17.106839418411255">
        <ele>377.54</ele>
        <time>2023-06-13T14:44:38.108Z</time>
      </trkpt>
      <trkpt lat="48.23856362141669" lon="17.106839418411255">
        <ele>377.47</ele>
        <time>2023-06-13T14:44:39.624Z</time>
      </trkpt>
      <trkpt lat="48.23873519897461" lon="17.10700035095215">
        <ele>377.74</ele>
        <time>2023-06-13T14:44:41.145Z</time>
      </trkpt>
      <trkpt lat="48.23879957199097" lon="17.107096910476685">
        <ele>378.07</ele>
        <time>2023-06-13T14:44:42.667Z</time>
      </trkpt>
      <trkpt lat="48.238863945007324" lon="17.10721492767334">
        <ele>378.47</ele>
        <time>2023-06-13T14:44:44.191Z</time>
      </trkpt>
      <trkpt lat="48.2388961315155" lon="17.107332944869995">
        <ele>378.88</ele>
        <time>2023-06-13T14:44:45.717Z</time>
      </trkpt>
      <trkpt lat="48.23890686035156" lon="17.107536792755127">
        <ele>379.34</ele>
        <time>2023-06-13T14:44:47.246Z</time>
      </trkpt>
      <trkpt lat="48.23890686035156" lon="17.107579708099365">
        <ele>379.55</ele>
        <time>2023-06-13T14:44:48.775Z</time>
      </trkpt>
      <trkpt lat="48.23891758918762" lon="17.107815742492676">
        <ele>379.78</ele>
        <time>2023-06-13T14:44:50.308Z</time>
      </trkpt>
      <trkpt lat="48.23854207992554" lon="17.10770845413208">
        <ele>379.06</ele>
        <time>2023-06-13T14:44:51.848Z</time>
      </trkpt>
      <trkpt lat="48.238445520401" lon="17.107665538787842">
        <ele>378.68</ele>
        <time>2023-06-13T14:44:53.390Z</time>
      </trkpt>
      <trkpt lat="48.238338232040405" lon="17.107665538787842">
        <ele>378.24</ele>
        <time>2023-06-13T14:44:54.934Z</time>
      </trkpt>
      <trkpt lat="48.23822021484375" lon="17.107601165771484">
        <ele>377.77</ele>
        <time>2023-06-13T14:44:56.481Z</time>
      </trkpt>
      <trkpt lat="48.238102197647095" lon="17.107611894607544">
        <ele>377.29</ele>
        <time>2023-06-13T14:44:58.030Z</time>
      </trkpt>
      <trkpt lat="48.237938079982996" lon="17.107757488265634">
        <ele>376.71</ele>
        <time>2023-06-13T14:44:59.583Z</time>
      </trkpt>
      <trkpt lat="48.237931625917554" lon="17.107763355597854">
        <ele>376.69</ele>
        <time>2023-06-13T14:45:01.136Z</time>
      </trkpt>
      <trkpt lat="48.237931123003364" lon="17.107763942331076">
        <ele>376.69</ele>
        <time>2023-06-13T14:45:02.689Z</time>
      </trkpt>
      <trkpt lat="48.23793087154627" lon="17.10776419378817">
        <ele>376.69</ele>
        <time>2023-06-13T14:45:04.242Z</time>
      </trkpt>
      <trkpt lat="48.23790907859802" lon="17.107783555984497">
        <ele>374.6</ele>
        <time>2023-06-13T14:45:05.796Z</time>
      </trkpt>
      <trkpt lat="48.23789834976196" lon="17.107805013656616">
        <ele>374.36</ele>
        <time>2023-06-13T14:45:07.350Z</time>
      </trkpt>
      <trkpt lat="48.23793053627014" lon="17.107912302017212">
        <ele>374.08</ele>
        <time>2023-06-13T14:45:08.906Z</time>
      </trkpt>
      <trkpt lat="48.23793053627014" lon="17.108008861541748">
        <ele>373.85</ele>
        <time>2023-06-13T14:45:10.463Z</time>
      </trkpt>
      <trkpt lat="48.23790907859802" lon="17.108105421066284">
        <ele>373.66</ele>
        <time>2023-06-13T14:45:12.021Z</time>
      </trkpt>
      <trkpt lat="48.2378447894007" lon="17.108255624771118">
        <ele>373.46</ele>
        <time>2023-06-13T14:45:13.582Z</time>
      </trkpt>
      <trkpt lat="48.237812519073486" lon="17.108266353607178">
        <ele>373.41</ele>
        <time>2023-06-13T14:45:15.143Z</time>
      </trkpt>
      <trkpt lat="48.23779106140137" lon="17.108266353607178">
        <ele>373.5</ele>
        <time>2023-06-13T14:45:16.705Z</time>
      </trkpt>
      <trkpt lat="48.23772668838501" lon="17.108341455459595">
        <ele>373.72</ele>
        <time>2023-06-13T14:45:18.268Z</time>
      </trkpt>
      <trkpt lat="48.237608671188354" lon="17.108384370803833">
        <ele>374.2</ele>
        <time>2023-06-13T14:45:19.834Z</time>
      </trkpt>
      <trkpt lat="48.237544298172" lon="17.10843801498413">
        <ele>374.98</ele>
        <time>2023-06-13T14:45:21.401Z</time>
      </trkpt>
      <trkpt lat="48.23727607727051" lon="17.108792066574097">
        <ele>376.76</ele>
        <time>2023-06-13T14:45:22.976Z</time>
      </trkpt>
      <trkpt lat="48.237587213516235" lon="17.10899591445923">
        <ele>377.74</ele>
        <time>2023-06-13T14:45:24.557Z</time>
      </trkpt>
      <trkpt lat="48.23769450187683" lon="17.109146118164062">
        <ele>379.0</ele>
        <time>2023-06-13T14:45:26.141Z</time>
      </trkpt>
      <trkpt lat="48.23774814605713" lon="17.109349966049194">
        <ele>380.51</ele>
        <time>2023-06-13T14:45:27.728Z</time>
      </trkpt>
      <trkpt lat="48.23775887489319" lon="17.10947871208191">
        <ele>381.72</ele>
        <time>2023-06-13T14:45:29.317Z</time>
      </trkpt>
      <trkpt lat="48.23774814605713" lon="17.1096932888031">
        <ele>382.96</ele>
        <time>2023-06-13T14:45:30.909Z</time>
      </trkpt>
      <trkpt lat="48.2376960106194" lon="17.109932089224458">
        <ele>383.96</ele>
        <time>2023-06-13T14:45:32.504Z</time>
      </trkpt>
      <trkpt lat="48.237693747505546" lon="17.10994290187955">
        <ele>384.01</ele>
        <time>2023-06-13T14:45:34.099Z</time>
      </trkpt>
      <trkpt lat="48.237693663686514" lon="17.10994348861277">
        <ele>384.02</ele>
        <time>2023-06-13T14:45:35.694Z</time>
      </trkpt>
      <trkpt lat="48.237693747505546" lon="17.10994348861277">
        <ele>384.03</ele>
        <time>2023-06-13T14:45:37.289Z</time>
      </trkpt>
      <trkpt lat="48.237693663686514" lon="17.10994348861277">
        <ele>383.54</ele>
        <time>2023-06-13T14:45:38.884Z</time>
      </trkpt>
      <trkpt lat="48.23764085769653" lon="17.11018681526184">
        <ele>383.78</ele>
        <time>2023-06-13T14:45:40.483Z</time>
      </trkpt>
      <trkpt lat="48.237565755844116" lon="17.110412120819092">
        <ele>383.93</ele>
        <time>2023-06-13T14:45:42.085Z</time>
      </trkpt>
      <trkpt lat="48.2374906539917" lon="17.110540866851807">
        <ele>384.2</ele>
        <time>2023-06-13T14:45:43.689Z</time>
      </trkpt>
      <trkpt lat="48.23714733123779" lon="17.110884189605713">
        <ele>384.68</ele>
        <time>2023-06-13T14:45:45.302Z</time>
      </trkpt>
      <trkpt lat="48.237082958221436" lon="17.11098074913025">
        <ele>385.1</ele>
        <time>2023-06-13T14:45:46.916Z</time>
      </trkpt>
      <trkpt lat="48.23705077171326" lon="17.111066579818726">
        <ele>385.7</ele>
        <time>2023-06-13T14:45:48.532Z</time>
      </trkpt>
      <trkpt lat="48.23702931404114" lon="17.11116313934326">
        <ele>386.46</ele>
        <time>2023-06-13T14:45:50.149Z</time>
      </trkpt>
      <trkpt lat="48.2370400428772" lon="17.11122751235962">
        <ele>387.21</ele>
        <time>2023-06-13T14:45:51.767Z</time>
      </trkpt>
      <trkpt lat="48.237104415893555" lon="17.111302614212036">
        <ele>388.05</ele>
        <time>2023-06-13T14:45:53.387Z</time>
      </trkpt>
      <trkpt lat="48.23720097541809" lon="17.111313343048096">
        <ele>389.02</ele>
        <time>2023-06-13T14:45:55.009Z</time>
      </trkpt>
      <trkpt lat="48.2373833656311" lon="17.11124897003174">
        <ele>390.0</ele>
        <time>2023-06-13T14:45:56.634Z</time>
      </trkpt>
      <trkpt lat="48.23744773864746" lon="17.111259698867798">
        <ele>391.33</ele>
        <time>2023-06-13T14:45:58.261Z</time>
      </trkpt>
      <trkpt lat="48.23752284049988" lon="17.111345529556274">
        <ele>393.1</ele>
        <time>2023-06-13T14:45:59.890Z</time>
      </trkpt>
      <trkpt lat="48.23755502700806" lon="17.11147427558899">
        <ele>395.15</ele>
        <time>2023-06-13T14:46:01.520Z</time>
      </trkpt>
      <trkpt lat="48.237597942352295" lon="17.112075090408325">
        <ele>397.95</ele>
        <time>2023-06-13T14:46:03.158Z</time>
      </trkpt>
      <trkpt lat="48.23770523071289" lon="17.112600803375244">
        <ele>400.6</ele>
        <time>2023-06-13T14:46:04.804Z</time>
      </trkpt>
      <trkpt lat="48.23791980743408" lon="17.113308906555176">
        <ele>403.09</ele>
        <time>2023-06-13T14:46:06.460Z</time>
      </trkpt>
      <trkpt lat="48.2380485534668" lon="17.113802433013916">
        <ele>405.55</ele>
        <time>2023-06-13T14:46:08.123Z</time>
      </trkpt>
      <trkpt lat="48.238112926483154" lon="17.11419939994812">
        <ele>408.06</ele>
        <time>2023-06-13T14:46:09.792Z</time>
      </trkpt>
      <trkpt lat="48.23814511299133" lon="17.114295959472656">
        <ele>410.02</ele>
        <time>2023-06-13T14:46:11.462Z</time>
      </trkpt>
      <trkpt lat="48.238370418548584" lon="17.11471438407898">
        <ele>411.68</ele>
        <time>2023-06-13T14:46:13.139Z</time>
      </trkpt>
      <trkpt lat="48.2383918762207" lon="17.114843130111694">
        <ele>413.5</ele>
        <time>2023-06-13T14:46:14.818Z</time>
      </trkpt>
      <trkpt lat="48.238381147384644" lon="17.11517572402954">
        <ele>415.54</ele>
        <time>2023-06-13T14:46:16.502Z</time>
      </trkpt>
      <trkpt lat="48.238445520401" lon="17.115390300750732">
        <ele>417.19</ele>
        <time>2023-06-13T14:46:18.189Z</time>
      </trkpt>
      <trkpt lat="48.2385528087616" lon="17.115572690963745">
        <ele>418.56</ele>
        <time>2023-06-13T14:46:19.879Z</time>
      </trkpt>
      <trkpt lat="48.238617181777954" lon="17.115637063980103">
        <ele>419.57</ele>
        <time>2023-06-13T14:46:21.571Z</time>
      </trkpt>
      <trkpt lat="48.23877811431885" lon="17.11573362350464">
        <ele>420.3</ele>
        <time>2023-06-13T14:46:23.266Z</time>
      </trkpt>
      <trkpt lat="48.23893904685974" lon="17.115787267684937">
        <ele>420.82</ele>
        <time>2023-06-13T14:46:24.964Z</time>
      </trkpt>
      <trkpt lat="48.2390570640564" lon="17.115797996520996">
        <ele>421.16</ele>
        <time>2023-06-13T14:46:26.665Z</time>
      </trkpt>
      <trkpt lat="48.23919653892517" lon="17.115765810012817">
        <ele>421.16</ele>
        <time>2023-06-13T14:46:28.369Z</time>
      </trkpt>
      <trkpt lat="48.239325284957886" lon="17.115765810012817">
        <ele>421.15</ele>
        <time>2023-06-13T14:46:30.075Z</time>
      </trkpt>
      <trkpt lat="48.23938965797424" lon="17.115787267684937">
        <ele>421.28</ele>
        <time>2023-06-13T14:46:31.782Z</time>
      </trkpt>
      <trkpt lat="48.23949694633484" lon="17.115883827209473">
        <ele>421.44</ele>
        <time>2023-06-13T14:46:33.492Z</time>
      </trkpt>
      <trkpt lat="48.239604234695435" lon="17.116119861602783">
        <ele>421.77</ele>
        <time>2023-06-13T14:46:35.206Z</time>
      </trkpt>
      <trkpt lat="48.24000120162964" lon="17.1172034740448">
        <ele>422.39</ele>
        <time>2023-06-13T14:46:36.936Z</time>
      </trkpt>
      <trkpt lat="48.24019432067871" lon="17.117525339126587">
        <ele>422.5</ele>
        <time>2023-06-13T14:46:38.672Z</time>
      </trkpt>
      <trkpt lat="48.24030160903931" lon="17.117600440979004">
        <ele>422.26</ele>
        <time>2023-06-13T14:46:40.410Z</time>
      </trkpt>
      <trkpt lat="48.24038743972778" lon="17.117632627487183">
        <ele>421.83</ele>
        <time>2023-06-13T14:46:42.150Z</time>
      </trkpt>
      <trkpt lat="48.24067711830139" lon="17.117782831192017">
        <ele>421.09</ele>
        <time>2023-06-13T14:46:43.896Z</time>
      </trkpt>
      <trkpt lat="48.24074149131775" lon="17.117836475372314">
        <ele>420.62</ele>
        <time>2023-06-13T14:46:45.644Z</time>
      </trkpt>
      <trkpt lat="48.240838050842285" lon="17.11798667907715">
        <ele>420.18</ele>
        <time>2023-06-13T14:46:47.395Z</time>
      </trkpt>
      <trkpt lat="48.24089169502258" lon="17.1181583404541">
        <ele>419.94</ele>
        <time>2023-06-13T14:46:49.148Z</time>
      </trkpt>
      <trkpt lat="48.24092388153076" lon="17.118330001831055">
        <ele>420.04</ele>
        <time>2023-06-13T14:46:50.904Z</time>
      </trkpt>
      <trkpt lat="48.241049610078335" lon="17.119503300637007">
        <ele>420.8</ele>
        <time>2023-06-13T14:46:52.675Z</time>
      </trkpt>
      <trkpt lat="48.24104969389737" lon="17.11950397118926">
        <ele>420.81</ele>
        <time>2023-06-13T14:46:54.446Z</time>
      </trkpt>
      <trkpt lat="48.24105036444962" lon="17.119511431083083">
        <ele>420.31</ele>
        <time>2023-06-13T14:46:56.218Z</time>
      </trkpt>
      <trkpt lat="48.241050532087684" lon="17.11951268836856">
        <ele>420.24</ele>
        <time>2023-06-13T14:46:57.990Z</time>
      </trkpt>
      <trkpt lat="48.241050615906715" lon="17.119513442739844">
        <ele>420.2</ele>
        <time>2023-06-13T14:46:59.762Z</time>
      </trkpt>
      <trkpt lat="48.24105262756348" lon="17.119531631469727">
        <ele>419.03</ele>
        <time>2023-06-13T14:47:01.534Z</time>
      </trkpt>
      <trkpt lat="48.24117064476013" lon="17.12043285369873">
        <ele>419.06</ele>
        <time>2023-06-13T14:47:03.318Z</time>
      </trkpt>
      <trkpt lat="48.24118137359619" lon="17.121044397354126">
        <ele>420.09</ele>
        <time>2023-06-13T14:47:05.110Z</time>
      </trkpt>
      <trkpt lat="48.24124574661255" lon="17.121505737304688">
        <ele>420.27</ele>
        <time>2023-06-13T14:47:06.909Z</time>
      </trkpt>
      <trkpt lat="48.241331577301025" lon="17.121773958206177">
        <ele>420.24</ele>
        <time>2023-06-13T14:47:08.712Z</time>
      </trkpt>
      <trkpt lat="48.241374492645264" lon="17.121827602386475">
        <ele>420.46</ele>
        <time>2023-06-13T14:47:10.516Z</time>
      </trkpt>
      <trkpt lat="48.24169635772705" lon="17.122074365615845">
        <ele>420.94</ele>
        <time>2023-06-13T14:47:12.327Z</time>
      </trkpt>
      <trkpt lat="48.24173927307129" lon="17.122128009796143">
        <ele>421.54</ele>
        <time>2023-06-13T14:47:14.139Z</time>
      </trkpt>
      <trkpt lat="48.24178218841553" lon="17.12218165397644">
        <ele>422.29</ele>
        <time>2023-06-13T14:47:15.952Z</time>
      </trkpt>
      <trkpt lat="48.241835832595825" lon="17.122353315353394">
        <ele>423.25</ele>
        <time>2023-06-13T14:47:17.768Z</time>
      </trkpt>
      <trkpt lat="48.241857290267944" lon="17.122803926467896">
        <ele>424.54</ele>
        <time>2023-06-13T14:47:19.590Z</time>
      </trkpt>
      <trkpt lat="48.241814374923706" lon="17.12341547012329">
        <ele>425.87</ele>
        <time>2023-06-13T14:47:21.420Z</time>
      </trkpt>
      <trkpt lat="48.24170708656311" lon="17.124145030975342">
        <ele>427.42</ele>
        <time>2023-06-13T14:47:23.260Z</time>
      </trkpt>
      <trkpt lat="48.241578340530396" lon="17.124820947647095">
        <ele>429.19</ele>
        <time>2023-06-13T14:47:25.109Z</time>
      </trkpt>
      <trkpt lat="48.24148178100586" lon="17.125142812728882">
        <ele>431.08</ele>
        <time>2023-06-13T14:47:26.963Z</time>
      </trkpt>
      <trkpt lat="48.24070930480957" lon="17.126322984695435">
        <ele>433.64</ele>
        <time>2023-06-13T14:47:28.839Z</time>
      </trkpt>
      <trkpt lat="48.24053772725165" lon="17.12668776512146">
        <ele>435.7</ele>
        <time>2023-06-13T14:47:30.721Z</time>
      </trkpt>
      <trkpt lat="48.240312337875366" lon="17.12690234184265">
        <ele>437.69</ele>
        <time>2023-06-13T14:47:32.608Z</time>
      </trkpt>
      <trkpt lat="48.240076303482056" lon="17.127041816711426">
        <ele>439.89</ele>
        <time>2023-06-13T14:47:34.500Z</time>
      </trkpt>
      <trkpt lat="48.239625692367554" lon="17.127288579940796">
        <ele>442.55</ele>
        <time>2023-06-13T14:47:36.402Z</time>
      </trkpt>
      <trkpt lat="48.23917508125305" lon="17.12744951248169">
        <ele>445.39</ele>
        <time>2023-06-13T14:47:38.313Z</time>
      </trkpt>
      <trkpt lat="48.238348960876465" lon="17.12793231010437">
        <ele>448.61</ele>
        <time>2023-06-13T14:47:40.242Z</time>
      </trkpt>
      <trkpt lat="48.23803782463074" lon="17.128082513809204">
        <ele>451.45</ele>
        <time>2023-06-13T14:47:42.178Z</time>
      </trkpt>
      <trkpt lat="48.237812519073486" lon="17.12815761566162">
        <ele>453.9</ele>
        <time>2023-06-13T14:47:44.118Z</time>
      </trkpt>
      <trkpt lat="48.237115228548646" lon="17.12817907333374">
        <ele>456.2</ele>
        <time>2023-06-13T14:47:46.072Z</time>
      </trkpt>
      <trkpt lat="48.237115144729614" lon="17.12817907333374">
        <ele>458.03</ele>
        <time>2023-06-13T14:47:48.026Z</time>
      </trkpt>
      <trkpt lat="48.23679327964783" lon="17.12822198867798">
        <ele>459.84</ele>
        <time>2023-06-13T14:47:49.987Z</time>
      </trkpt>
      <trkpt lat="48.23654660023749" lon="17.12820053100586">
        <ele>461.18</ele>
        <time>2023-06-13T14:47:51.953Z</time>
      </trkpt>
      <trkpt lat="48.23651432991028" lon="17.128243446350098">
        <ele>462.21</ele>
        <time>2023-06-13T14:47:53.920Z</time>
      </trkpt>
      <trkpt lat="48.23649287223816" lon="17.128286361694336">
        <ele>462.99</ele>
        <time>2023-06-13T14:47:55.887Z</time>
      </trkpt>
      <trkpt lat="48.23646076954901" lon="17.128286361694336">
        <ele>463.54</ele>
        <time>2023-06-13T14:47:57.855Z</time>
      </trkpt>
      <trkpt lat="48.236374855041504" lon="17.128254175186157">
        <ele>463.86</ele>
        <time>2023-06-13T14:47:59.825Z</time>
      </trkpt>
      <trkpt lat="48.23616027832031" lon="17.128297090530396">
        <ele>463.97</ele>
        <time>2023-06-13T14:48:01.799Z</time>
      </trkpt>
      <trkpt lat="48.23605298995972" lon="17.128382921218872">
        <ele>464.01</ele>
        <time>2023-06-13T14:48:03.775Z</time>
      </trkpt>
      <trkpt lat="48.235849142074585" lon="17.128629684448242">
        <ele>463.95</ele>
        <time>2023-06-13T14:48:05.757Z</time>
      </trkpt>
      <trkpt lat="48.23575266636908" lon="17.128833532333374">
        <ele>463.82</ele>
        <time>2023-06-13T14:48:07.742Z</time>
      </trkpt>
      <trkpt lat="48.2354736328125" lon="17.129359245300293">
        <ele>463.48</ele>
        <time>2023-06-13T14:48:09.736Z</time>
      </trkpt>
      <trkpt lat="48.235098123550415" lon="17.12989568710327">
        <ele>462.67</ele>
        <time>2023-06-13T14:48:11.740Z</time>
      </trkpt>
      <trkpt lat="48.23473342694342" lon="17.130292654037476">
        <ele>462.06</ele>
        <time>2023-06-13T14:48:13.753Z</time>
      </trkpt>
      <trkpt lat="48.23495873250067" lon="17.130571603775024">
        <ele>461.95</ele>
        <time>2023-06-13T14:48:15.772Z</time>
      </trkpt>
      <trkpt lat="48.23504447937012" lon="17.13070034980774">
        <ele>461.64</ele>
        <time>2023-06-13T14:48:17.794Z</time>
      </trkpt>
      <trkpt lat="48.23524832725525" lon="17.131129503250122">
        <ele>461.2</ele>
        <time>2023-06-13T14:48:19.823Z</time>
      </trkpt>
      <trkpt lat="48.235366344451904" lon="17.131279706954956">
        <ele>460.54</ele>
        <time>2023-06-13T14:48:21.855Z</time>
      </trkpt>
      <trkpt lat="48.23546290397644" lon="17.131376266479492">
        <ele>459.8</ele>
        <time>2023-06-13T14:48:23.889Z</time>
      </trkpt>
      <trkpt lat="48.235924243927" lon="17.13167667388916">
        <ele>458.89</ele>
        <time>2023-06-13T14:48:25.933Z</time>
      </trkpt>
      <trkpt lat="48.23598861694336" lon="17.131741046905518">
        <ele>458.01</ele>
        <time>2023-06-13T14:48:27.979Z</time>
      </trkpt>
      <trkpt lat="48.23602088727057" lon="17.131826877593994">
        <ele>456.98</ele>
        <time>2023-06-13T14:48:30.026Z</time>
      </trkpt>
      <trkpt lat="48.23602080345154" lon="17.131826877593994">
        <ele>455.84</ele>
        <time>2023-06-13T14:48:32.073Z</time>
      </trkpt>
      <trkpt lat="48.236063718795776" lon="17.132041454315186">
        <ele>454.48</ele>
        <time>2023-06-13T14:48:34.123Z</time>
      </trkpt>
      <trkpt lat="48.2360315322876" lon="17.13288903236389">
        <ele>452.82</ele>
        <time>2023-06-13T14:48:36.184Z</time>
      </trkpt>
      <trkpt lat="48.23604226112366" lon="17.13366150856018">
        <ele>450.86</ele>
        <time>2023-06-13T14:48:38.256Z</time>
      </trkpt>
      <trkpt lat="48.236117446795106" lon="17.133843898773193">
        <ele>449.04</ele>
        <time>2023-06-13T14:48:40.331Z</time>
      </trkpt>
      <trkpt lat="48.23616027832031" lon="17.13391900062561">
        <ele>447.23</ele>
        <time>2023-06-13T14:48:42.407Z</time>
      </trkpt>
      <trkpt lat="48.23628902435303" lon="17.134047746658325">
        <ele>445.22</ele>
        <time>2023-06-13T14:48:44.486Z</time>
      </trkpt>
      <trkpt lat="48.23650360107422" lon="17.134530544281006">
        <ele>443.23</ele>
        <time>2023-06-13T14:48:46.573Z</time>
      </trkpt>
      <trkpt lat="48.236879110336304" lon="17.13495969772339">
        <ele>441.21</ele>
        <time>2023-06-13T14:48:48.669Z</time>
      </trkpt>
      <trkpt lat="48.23705077171326" lon="17.13520646095276">
        <ele>439.41</ele>
        <time>2023-06-13T14:48:50.770Z</time>
      </trkpt>
      <trkpt lat="48.23713660240173" lon="17.135506868362427">
        <ele>437.71</ele>
        <time>2023-06-13T14:48:52.875Z</time>
      </trkpt>
      <trkpt lat="48.23715806007385" lon="17.135775089263916">
        <ele>436.31</ele>
        <time>2023-06-13T14:48:54.984Z</time>
      </trkpt>
      <trkpt lat="48.23715806007385" lon="17.135978937149048">
        <ele>435.27</ele>
        <time>2023-06-13T14:48:57.096Z</time>
      </trkpt>
      <trkpt lat="48.237104415893555" lon="17.136247158050537">
        <ele>434.33</ele>
        <time>2023-06-13T14:48:59.211Z</time>
      </trkpt>
      <trkpt lat="48.23673963546753" lon="17.13694453239441">
        <ele>433.63</ele>
        <time>2023-06-13T14:49:01.338Z</time>
      </trkpt>
      <trkpt lat="48.23668976314366" lon="17.137174531817436">
        <ele>433.54</ele>
        <time>2023-06-13T14:49:03.469Z</time>
      </trkpt>
      <trkpt lat="48.23666252195835" lon="17.137161204591393">
        <ele>434.74</ele>
        <time>2023-06-13T14:49:05.600Z</time>
      </trkpt>
      <trkpt lat="48.23665992356837" lon="17.137159947305918">
        <ele>434.86</ele>
        <time>2023-06-13T14:49:07.731Z</time>
      </trkpt>
      <trkpt lat="48.23666444979608" lon="17.13716204278171">
        <ele>435.43</ele>
        <time>2023-06-13T14:49:09.862Z</time>
      </trkpt>
      <trkpt lat="48.23666537180543" lon="17.1371625456959">
        <ele>435.55</ele>
        <time>2023-06-13T14:49:11.993Z</time>
      </trkpt>
      <trkpt lat="48.23668976314366" lon="17.137174447998405">
        <ele>438.81</ele>
        <time>2023-06-13T14:49:14.125Z</time>
      </trkpt>
      <trkpt lat="48.23654651641846" lon="17.137835025787354">
        <ele>440.59</ele>
        <time>2023-06-13T14:49:16.266Z</time>
      </trkpt>
      <trkpt lat="48.23650360107422" lon="17.138478755950928">
        <ele>441.28</ele>
        <time>2023-06-13T14:49:18.416Z</time>
      </trkpt>
      <trkpt lat="48.23652505874634" lon="17.138843536376953">
        <ele>441.7</ele>
        <time>2023-06-13T14:49:20.571Z</time>
      </trkpt>
      <trkpt lat="48.236600160598755" lon="17.1391761302948">
        <ele>441.86</ele>
        <time>2023-06-13T14:49:22.730Z</time>
      </trkpt>
      <trkpt lat="48.23660024441779" lon="17.1391761302948">
        <ele>441.68</ele>
        <time>2023-06-13T14:49:24.889Z</time>
      </trkpt>
      <trkpt lat="48.23667526245117" lon="17.13942289352417">
        <ele>441.31</ele>
        <time>2023-06-13T14:49:27.052Z</time>
      </trkpt>
      <trkpt lat="48.23673963546753" lon="17.13969111442566">
        <ele>440.57</ele>
        <time>2023-06-13T14:49:29.219Z</time>
      </trkpt>
      <trkpt lat="48.23679327964783" lon="17.139980792999268">
        <ele>439.5</ele>
        <time>2023-06-13T14:49:31.390Z</time>
      </trkpt>
      <trkpt lat="48.236846923828125" lon="17.1401309967041">
        <ele>438.38</ele>
        <time>2023-06-13T14:49:33.563Z</time>
      </trkpt>
      <trkpt lat="48.23697566986084" lon="17.140367031097412">
        <ele>437.07</ele>
        <time>2023-06-13T14:49:35.740Z</time>
      </trkpt>
      <trkpt lat="48.237104415893555" lon="17.140560150146484">
        <ele>435.47</ele>
        <time>2023-06-13T14:49:37.921Z</time>
      </trkpt>
      <trkpt lat="48.23722243309021" lon="17.14067816734314">
        <ele>433.64</ele>
        <time>2023-06-13T14:49:40.105Z</time>
      </trkpt>
      <trkpt lat="48.237351179122925" lon="17.140731811523438">
        <ele>431.76</ele>
        <time>2023-06-13T14:49:42.291Z</time>
      </trkpt>
      <trkpt lat="48.23766231536865" lon="17.140806913375854">
        <ele>429.38</ele>
        <time>2023-06-13T14:49:44.484Z</time>
      </trkpt>
      <trkpt lat="48.23814511299133" lon="17.141032218933105">
        <ele>427.57</ele>
        <time>2023-06-13T14:49:46.687Z</time>
      </trkpt>
      <trkpt lat="48.23820948600769" lon="17.1411395072937">
        <ele>426.35</ele>
        <time>2023-06-13T14:49:48.892Z</time>
      </trkpt>
      <trkpt lat="48.23823094367981" lon="17.141289710998535">
        <ele>425.36</ele>
        <time>2023-06-13T14:49:51.099Z</time>
      </trkpt>
      <trkpt lat="48.23822021484375" lon="17.141729593276978">
        <ele>424.84</ele>
        <time>2023-06-13T14:49:53.312Z</time>
      </trkpt>
      <trkpt lat="48.23819875717163" lon="17.141826152801514">
        <ele>424.43</ele>
        <time>2023-06-13T14:49:55.526Z</time>
      </trkpt>
      <trkpt lat="48.23814511299133" lon="17.141976356506348">
        <ele>424.19</ele>
        <time>2023-06-13T14:49:57.742Z</time>
      </trkpt>
      <trkpt lat="48.2378876209259" lon="17.14242696762085">
        <ele>424.5</ele>
        <time>2023-06-13T14:49:59.966Z</time>
      </trkpt>
      <trkpt lat="48.237565755844116" lon="17.14288830757141">
        <ele>425.06</ele>
        <time>2023-06-13T14:50:02.199Z</time>
      </trkpt>
      <trkpt lat="48.23740482330322" lon="17.14316725730896">
        <ele>425.19</ele>
        <time>2023-06-13T14:50:04.437Z</time>
      </trkpt>
      <trkpt lat="48.23714733123779" lon="17.14368224143982">
        <ele>425.52</ele>
        <time>2023-06-13T14:50:06.684Z</time>
      </trkpt>
      <trkpt lat="48.23697566986084" lon="17.143853902816772">
        <ele>426.24</ele>
        <time>2023-06-13T14:50:08.935Z</time>
      </trkpt>
      <trkpt lat="48.23693283833563" lon="17.14392900466919">
        <ele>427.25</ele>
        <time>2023-06-13T14:50:11.187Z</time>
      </trkpt>
      <trkpt lat="48.237082958221436" lon="17.144036293029785">
        <ele>428.66</ele>
        <time>2023-06-13T14:50:13.442Z</time>
      </trkpt>
      <trkpt lat="48.237351179122925" lon="17.1441650390625">
        <ele>430.54</ele>
        <time>2023-06-13T14:50:15.703Z</time>
      </trkpt>
      <trkpt lat="48.238113010302186" lon="17.144347429275513">
        <ele>432.56</ele>
        <time>2023-06-13T14:50:17.979Z</time>
      </trkpt>
      <trkpt lat="48.238112926483154" lon="17.144347429275513">
        <ele>434.06</ele>
        <time>2023-06-13T14:50:20.255Z</time>
      </trkpt>
      <trkpt lat="48.23872933164239" lon="17.144383220002055">
        <ele>436.06</ele>
        <time>2023-06-13T14:50:22.544Z</time>
      </trkpt>
      <trkpt lat="48.238736875355244" lon="17.144383722916245">
        <ele>436.09</ele>
        <time>2023-06-13T14:50:24.833Z</time>
      </trkpt>
      <trkpt lat="48.23873804882169" lon="17.144383806735277">
        <ele>436.1</ele>
        <time>2023-06-13T14:50:27.122Z</time>
      </trkpt>
      <trkpt lat="48.23903560638428" lon="17.14440107345581">
        <ele>442.76</ele>
        <time>2023-06-13T14:50:29.417Z</time>
      </trkpt>
      <trkpt lat="48.23920726776123" lon="17.144358158111572">
        <ele>444.25</ele>
        <time>2023-06-13T14:50:31.715Z</time>
      </trkpt>
      <trkpt lat="48.23953986167908" lon="17.14414358139038">
        <ele>446.04</ele>
        <time>2023-06-13T14:50:34.021Z</time>
      </trkpt>
      <trkpt lat="48.23989391326904" lon="17.143853902816772">
        <ele>447.94</ele>
        <time>2023-06-13T14:50:36.335Z</time>
      </trkpt>
      <trkpt lat="48.240387523546815" lon="17.14341402053833">
        <ele>449.39</ele>
        <time>2023-06-13T14:50:38.660Z</time>
      </trkpt>
      <trkpt lat="48.24065566062927" lon="17.14317798614502">
        <ele>450.58</ele>
        <time>2023-06-13T14:50:40.991Z</time>
      </trkpt>
      <trkpt lat="48.240827322006226" lon="17.143049240112305">
        <ele>451.65</ele>
        <time>2023-06-13T14:50:43.326Z</time>
      </trkpt>
      <trkpt lat="48.24098825454712" lon="17.142984867095947">
        <ele>452.5</ele>
        <time>2023-06-13T14:50:45.665Z</time>
      </trkpt>
      <trkpt lat="48.24115991592407" lon="17.14295268058777">
        <ele>453.06</ele>
        <time>2023-06-13T14:50:48.007Z</time>
      </trkpt>
      <trkpt lat="48.24127860367298" lon="17.14295955374837">
        <ele>453.3</ele>
        <time>2023-06-13T14:50:50.352Z</time>
      </trkpt>
      <trkpt lat="48.24128623120487" lon="17.14296005666256">
        <ele>453.32</ele>
        <time>2023-06-13T14:50:52.697Z</time>
      </trkpt>
      <trkpt lat="48.24128723703325" lon="17.14296014048159">
        <ele>453.33</ele>
        <time>2023-06-13T14:50:55.042Z</time>
      </trkpt>
      <trkpt lat="48.241342306137085" lon="17.142963409423828">
        <ele>457.43</ele>
        <time>2023-06-13T14:50:57.388Z</time>
      </trkpt>
      <trkpt lat="48.24269413948059" lon="17.143253087997437">
        <ele>463.97</ele>
        <time>2023-06-13T14:50:59.761Z</time>
      </trkpt>
      <trkpt lat="48.243606174364686" lon="17.14341402053833">
        <ele>469.95</ele>
        <time>2023-06-13T14:51:02.152Z</time>
      </trkpt>
      <trkpt lat="48.243606090545654" lon="17.14341402053833">
        <ele>473.59</ele>
        <time>2023-06-13T14:51:04.543Z</time>
      </trkpt>
      <trkpt lat="48.244649302214384" lon="17.143539497628808">
        <ele>478.99</ele>
        <time>2023-06-13T14:51:06.955Z</time>
      </trkpt>
      <trkpt lat="48.24465692974627" lon="17.143540419638157">
        <ele>479.03</ele>
        <time>2023-06-13T14:51:09.368Z</time>
      </trkpt>
      <trkpt lat="48.24465827085078" lon="17.14354058727622">
        <ele>479.04</ele>
        <time>2023-06-13T14:51:11.781Z</time>
      </trkpt>
      <trkpt lat="48.2453013304621" lon="17.143617868423462">
        <ele>485.95</ele>
        <time>2023-06-13T14:51:14.207Z</time>
      </trkpt>
      <trkpt lat="48.24590357020497" lon="17.14368567802012">
        <ele>489.15</ele>
        <time>2023-06-13T14:51:16.645Z</time>
      </trkpt>
      <trkpt lat="48.24591119773686" lon="17.14368660002947">
        <ele>489.19</ele>
        <time>2023-06-13T14:51:19.083Z</time>
      </trkpt>
      <trkpt lat="48.245912455022335" lon="17.143686767667532">
        <ele>489.2</ele>
        <time>2023-06-13T14:51:21.521Z</time>
      </trkpt>
      <trkpt lat="48.24682482518256" lon="17.143789529800415">
        <ele>494.57</ele>
        <time>2023-06-13T14:51:23.977Z</time>
      </trkpt>
      <trkpt lat="48.24767240323126" lon="17.14388608932495">
        <ele>498.3</ele>
        <time>2023-06-13T14:51:26.450Z</time>
      </trkpt>
      <trkpt lat="48.24767231941223" lon="17.14388608932495">
        <ele>500.25</ele>
        <time>2023-06-13T14:51:28.923Z</time>
      </trkpt>
      <trkpt lat="48.2480263710022" lon="17.143961191177368">
        <ele>502.36</ele>
        <time>2023-06-13T14:51:31.403Z</time>
      </trkpt>
      <trkpt lat="48.24820876121521" lon="17.144036293029785">
        <ele>503.84</ele>
        <time>2023-06-13T14:51:33.887Z</time>
      </trkpt>
      <trkpt lat="48.24829082004726" lon="17.144103683531284">
        <ele>504.81</ele>
        <time>2023-06-13T14:51:36.373Z</time>
      </trkpt>
      <trkpt lat="48.2482975255698" lon="17.144109215587378">
        <ele>504.89</ele>
        <time>2023-06-13T14:51:38.859Z</time>
      </trkpt>
      <trkpt lat="48.248298447579145" lon="17.144109969958663">
        <ele>504.91</ele>
        <time>2023-06-13T14:51:41.345Z</time>
      </trkpt>
      <trkpt lat="48.24850916862488" lon="17.144283056259155">
        <ele>507.5</ele>
        <time>2023-06-13T14:51:43.836Z</time>
      </trkpt>
      <trkpt lat="48.2484769821167" lon="17.14413285255432">
        <ele>508.23</ele>
        <time>2023-06-13T14:51:46.329Z</time>
      </trkpt>
      <trkpt lat="48.2484769821167" lon="17.144047021865845">
        <ele>508.91</ele>
        <time>2023-06-13T14:51:48.823Z</time>
      </trkpt>
      <trkpt lat="48.24856289662421" lon="17.14368224143982">
        <ele>509.66</ele>
        <time>2023-06-13T14:51:51.322Z</time>
      </trkpt>
      <trkpt lat="48.248616456985474" lon="17.143489122390747">
        <ele>510.42</ele>
        <time>2023-06-13T14:51:53.824Z</time>
      </trkpt>
      <trkpt lat="48.24867010116577" lon="17.143349647521973">
        <ele>511.22</ele>
        <time>2023-06-13T14:51:56.328Z</time>
      </trkpt>
      <trkpt lat="48.24870228767395" lon="17.143349647521973">
        <ele>511.91</ele>
        <time>2023-06-13T14:51:58.833Z</time>
      </trkpt>
      <trkpt lat="48.248831033706665" lon="17.14341402053833">
        <ele>512.8</ele>
        <time>2023-06-13T14:52:01.341Z</time>
      </trkpt>
      <trkpt lat="48.24892767705023" lon="17.143242359161377">
        <ele>513.44</ele>
        <time>2023-06-13T14:52:03.852Z</time>
      </trkpt>
      <trkpt lat="48.24913144111633" lon="17.142856121063232">
        <ele>514.1</ele>
        <time>2023-06-13T14:52:06.369Z</time>
      </trkpt>
      <trkpt lat="48.24926018714905" lon="17.142502069473267">
        <ele>513.95</ele>
        <time>2023-06-13T14:52:08.892Z</time>
      </trkpt>
      <trkpt lat="48.249313831329346" lon="17.14240550994873">
        <ele>513.77</ele>
        <time>2023-06-13T14:52:11.416Z</time>
      </trkpt>
      <trkpt lat="48.249603509902954" lon="17.142030000686646">
        <ele>513.17</ele>
        <time>2023-06-13T14:52:13.948Z</time>
      </trkpt>
      <trkpt lat="48.249603509902954" lon="17.142019271850586">
        <ele>512.7</ele>
        <time>2023-06-13T14:52:16.480Z</time>
      </trkpt>
      <trkpt lat="48.249592781066895" lon="17.141976356506348">
        <ele>512.15</ele>
        <time>2023-06-13T14:52:19.013Z</time>
      </trkpt>
      <trkpt lat="48.24965715408325" lon="17.141804695129395">
        <ele>511.51</ele>
        <time>2023-06-13T14:52:21.548Z</time>
      </trkpt>
      <trkpt lat="48.24968934059143" lon="17.141579389572144">
        <ele>510.9</ele>
        <time>2023-06-13T14:52:24.086Z</time>
      </trkpt>
      <trkpt lat="48.24975371360779" lon="17.141332626342773">
        <ele>510.51</ele>
        <time>2023-06-13T14:52:26.628Z</time>
      </trkpt>
      <trkpt lat="48.24977517127991" lon="17.141096591949463">
        <ele>510.24</ele>
        <time>2023-06-13T14:52:29.173Z</time>
      </trkpt>
      <trkpt lat="48.249807357788086" lon="17.140978574752808">
        <ele>510.37</ele>
        <time>2023-06-13T14:52:31.720Z</time>
      </trkpt>
      <trkpt lat="48.249861001968384" lon="17.140839099884033">
        <ele>510.77</ele>
        <time>2023-06-13T14:52:34.269Z</time>
      </trkpt>
      <trkpt lat="48.249861085787416" lon="17.140839099884033">
        <ele>511.34</ele>
        <time>2023-06-13T14:52:36.818Z</time>
      </trkpt>
      <trkpt lat="48.2499897480011" lon="17.140603065490723">
        <ele>512.33</ele>
        <time>2023-06-13T14:52:39.371Z</time>
      </trkpt>
      <trkpt lat="48.25016140937805" lon="17.14039921760559">
        <ele>513.65</ele>
        <time>2023-06-13T14:52:41.928Z</time>
      </trkpt>
      <trkpt lat="48.250547647476196" lon="17.14017391204834">
        <ele>515.18</ele>
        <time>2023-06-13T14:52:44.494Z</time>
      </trkpt>
      <trkpt lat="48.25073003768921" lon="17.140012979507446">
        <ele>516.21</ele>
        <time>2023-06-13T14:52:47.064Z</time>
      </trkpt>
      <trkpt lat="48.250891054049134" lon="17.139766216278076">
        <ele>517.18</ele>
        <time>2023-06-13T14:52:49.639Z</time>
      </trkpt>
      <trkpt lat="48.251084089279175" lon="17.13945508003235">
        <ele>518.32</ele>
        <time>2023-06-13T14:52:52.219Z</time>
      </trkpt>
      <trkpt lat="48.25120210647583" lon="17.139122486114502">
        <ele>519.69</ele>
        <time>2023-06-13T14:52:54.804Z</time>
      </trkpt>
      <trkpt lat="48.25128793716431" lon="17.138596773147583">
        <ele>520.77</ele>
        <time>2023-06-13T14:52:57.397Z</time>
      </trkpt>
      <trkpt lat="48.251328840851784" lon="17.138104420155287">
        <ele>521.79</ele>
        <time>2023-06-13T14:52:59.996Z</time>
      </trkpt>
      <trkpt lat="48.251329846680164" lon="17.138092936947942">
        <ele>521.82</ele>
        <time>2023-06-13T14:53:02.595Z</time>
      </trkpt>
      <trkpt lat="48.251329930499196" lon="17.13809276930988">
        <ele>521.83</ele>
        <time>2023-06-13T14:53:05.194Z</time>
      </trkpt>
      <trkpt lat="48.251329846680164" lon="17.13809276930988">
        <ele>523.92</ele>
        <time>2023-06-13T14:53:07.793Z</time>
      </trkpt>
      <trkpt lat="48.251329930499196" lon="17.13809193111956">
        <ele>524.1</ele>
        <time>2023-06-13T14:53:10.392Z</time>
      </trkpt>
      <trkpt lat="48.251330852508545" lon="17.138081789016724">
        <ele>526.17</ele>
        <time>2023-06-13T14:53:12.992Z</time>
      </trkpt>
      <trkpt lat="48.251363039016724" lon="17.137835025787354">
        <ele>525.64</ele>
        <time>2023-06-13T14:53:15.595Z</time>
      </trkpt>
      <trkpt lat="48.25143814086914" lon="17.13767409324646">
        <ele>524.91</ele>
        <time>2023-06-13T14:53:18.201Z</time>
      </trkpt>
      <trkpt lat="48.25151324272156" lon="17.137545347213745">
        <ele>523.95</ele>
        <time>2023-06-13T14:53:20.809Z</time>
      </trkpt>
      <trkpt lat="48.251577615737915" lon="17.13739514350891">
        <ele>522.76</ele>
        <time>2023-06-13T14:53:23.419Z</time>
      </trkpt>
      <trkpt lat="48.25162053108215" lon="17.1372127532959">
        <ele>521.19</ele>
        <time>2023-06-13T14:53:26.032Z</time>
      </trkpt>
      <trkpt lat="48.25166344642639" lon="17.1367084980011">
        <ele>518.93</ele>
        <time>2023-06-13T14:53:28.652Z</time>
      </trkpt>
      <trkpt lat="48.25167417526245" lon="17.136311531066895">
        <ele>516.39</ele>
        <time>2023-06-13T14:53:31.277Z</time>
      </trkpt>
      <trkpt lat="48.25163125991821" lon="17.1356463432312">
        <ele>514.12</ele>
        <time>2023-06-13T14:53:33.911Z</time>
      </trkpt>
      <trkpt lat="48.25167417526245" lon="17.13541030883789">
        <ele>511.65</ele>
        <time>2023-06-13T14:53:36.548Z</time>
      </trkpt>
      <trkpt lat="48.25203895568848" lon="17.13439106941223">
        <ele>508.22</ele>
        <time>2023-06-13T14:53:39.201Z</time>
      </trkpt>
      <trkpt lat="48.25212478637695" lon="17.134058475494385">
        <ele>505.2</ele>
        <time>2023-06-13T14:53:41.858Z</time>
      </trkpt>
      <trkpt lat="48.25213551521301" lon="17.13388681411743">
        <ele>502.29</ele>
        <time>2023-06-13T14:53:44.518Z</time>
      </trkpt>
      <trkpt lat="48.252081871032715" lon="17.133092880249023">
        <ele>498.84</ele>
        <time>2023-06-13T14:53:47.188Z</time>
      </trkpt>
      <trkpt lat="48.25201749801636" lon="17.132771015167236">
        <ele>495.77</ele>
        <time>2023-06-13T14:53:49.863Z</time>
      </trkpt>
      <trkpt lat="48.251845836639404" lon="17.1322238445282">
        <ele>492.65</ele>
        <time>2023-06-13T14:53:52.546Z</time>
      </trkpt>
      <trkpt lat="48.25152397155762" lon="17.13141918182373">
        <ele>489.62</ele>
        <time>2023-06-13T14:53:55.241Z</time>
      </trkpt>
      <trkpt lat="48.25147041119635" lon="17.13118314743042">
        <ele>486.99</ele>
        <time>2023-06-13T14:53:57.940Z</time>
      </trkpt>
      <trkpt lat="48.25142741203308" lon="17.130796909332275">
        <ele>484.4</ele>
        <time>2023-06-13T14:54:00.644Z</time>
      </trkpt>
      <trkpt lat="48.251363039016724" lon="17.13042140007019">
        <ele>482.22</ele>
        <time>2023-06-13T14:54:03.353Z</time>
      </trkpt>
      <trkpt lat="48.251298666000366" lon="17.13043212890625">
        <ele>480.22</ele>
        <time>2023-06-13T14:54:06.063Z</time>
      </trkpt>
      <trkpt lat="48.25120210647583" lon="17.130378484725952">
        <ele>478.29</ele>
        <time>2023-06-13T14:54:08.775Z</time>
      </trkpt>
      <trkpt lat="48.251105546951294" lon="17.130260467529297">
        <ele>476.37</ele>
        <time>2023-06-13T14:54:11.490Z</time>
      </trkpt>
      <trkpt lat="48.25103044509888" lon="17.130131721496582">
        <ele>474.45</ele>
        <time>2023-06-13T14:54:14.207Z</time>
      </trkpt>
      <trkpt lat="48.25093388557434" lon="17.130013704299927">
        <ele>472.44</ele>
        <time>2023-06-13T14:54:16.927Z</time>
      </trkpt>
      <trkpt lat="48.25069785118103" lon="17.129852771759033">
        <ele>470.24</ele>
        <time>2023-06-13T14:54:19.652Z</time>
      </trkpt>
      <trkpt lat="48.25052618980408" lon="17.129809856414795">
        <ele>468.08</ele>
        <time>2023-06-13T14:54:22.380Z</time>
      </trkpt>
      <trkpt lat="48.2498824596405" lon="17.129852771759033">
        <ele>465.25</ele>
        <time>2023-06-13T14:54:25.121Z</time>
      </trkpt>
      <trkpt lat="48.24942111968994" lon="17.129788398742676">
        <ele>462.59</ele>
        <time>2023-06-13T14:54:27.872Z</time>
      </trkpt>
      <trkpt lat="48.24907788075507" lon="17.1297025680542">
        <ele>460.37</ele>
        <time>2023-06-13T14:54:30.630Z</time>
      </trkpt>
      <trkpt lat="48.248895490542054" lon="17.12965965270996">
        <ele>458.42</ele>
        <time>2023-06-13T14:54:33.391Z</time>
      </trkpt>
      <trkpt lat="48.248562812805176" lon="17.1296489238739">
        <ele>456.56</ele>
        <time>2023-06-13T14:54:36.159Z</time>
      </trkpt>
      <trkpt lat="48.24843406677246" lon="17.129627466201782">
        <ele>455.1</ele>
        <time>2023-06-13T14:54:38.930Z</time>
      </trkpt>
      <trkpt lat="48.24829467572272" lon="17.129498720169067">
        <ele>453.78</ele>
        <time>2023-06-13T14:54:41.704Z</time>
      </trkpt>
      <trkpt lat="48.24826240539551" lon="17.12945580482483">
        <ele>452.54</ele>
        <time>2023-06-13T14:54:44.479Z</time>
      </trkpt>
      <trkpt lat="48.24802645482123" lon="17.12939143180847">
        <ele>451.49</ele>
        <time>2023-06-13T14:54:47.258Z</time>
      </trkpt>
      <trkpt lat="48.24774750508368" lon="17.128522396087646">
        <ele>450.19</ele>
        <time>2023-06-13T14:54:50.050Z</time>
      </trkpt>
      <trkpt lat="48.24764013290405" lon="17.12820053100586">
        <ele>448.97</ele>
        <time>2023-06-13T14:54:52.847Z</time>
      </trkpt>
      <trkpt lat="48.24749001301825" lon="17.127825021743774">
        <ele>447.54</ele>
        <time>2023-06-13T14:54:55.650Z</time>
      </trkpt>
      <trkpt lat="48.24748992919922" lon="17.127825021743774">
        <ele>446.16</ele>
        <time>2023-06-13T14:54:58.453Z</time>
      </trkpt>
      <trkpt lat="48.24729681015015" lon="17.127352952957153">
        <ele>444.43</ele>
        <time>2023-06-13T14:55:01.263Z</time>
      </trkpt>
      <trkpt lat="48.2470178604126" lon="17.12671995162964">
        <ele>442.5</ele>
        <time>2023-06-13T14:55:04.084Z</time>
      </trkpt>
      <trkpt lat="48.24672818183899" lon="17.12620496749878">
        <ele>441.21</ele>
        <time>2023-06-13T14:55:06.914Z</time>
      </trkpt>
      <trkpt lat="48.24667453765869" lon="17.126076221466064">
        <ele>440.4</ele>
        <time>2023-06-13T14:55:09.746Z</time>
      </trkpt>
      <trkpt lat="48.24664235115051" lon="17.12593674659729">
        <ele>439.65</ele>
        <time>2023-06-13T14:55:12.580Z</time>
      </trkpt>
      <trkpt lat="48.246620893478394" lon="17.1256685256958">
        <ele>438.97</ele>
        <time>2023-06-13T14:55:15.417Z</time>
      </trkpt>
      <trkpt lat="48.24663162231445" lon="17.12541103363037">
        <ele>438.18</ele>
        <time>2023-06-13T14:55:18.258Z</time>
      </trkpt>
      <trkpt lat="48.246588706970215" lon="17.124820947647095">
        <ele>437.24</ele>
        <time>2023-06-13T14:55:21.107Z</time>
      </trkpt>
      <trkpt lat="48.24654579162598" lon="17.124617099761963">
        <ele>436.52</ele>
        <time>2023-06-13T14:55:23.958Z</time>
      </trkpt>
      <trkpt lat="48.24648141860962" lon="17.12441325187683">
        <ele>435.84</ele>
        <time>2023-06-13T14:55:26.812Z</time>
      </trkpt>
      <trkpt lat="48.246309757232666" lon="17.124123573303223">
        <ele>435.24</ele>
        <time>2023-06-13T14:55:29.672Z</time>
      </trkpt>
      <trkpt lat="48.24577331542969" lon="17.123533487319946">
        <ele>434.48</ele>
        <time>2023-06-13T14:55:32.545Z</time>
      </trkpt>
      <trkpt lat="48.2451456785202" lon="17.12295471690595">
        <ele>432.82</ele>
        <time>2023-06-13T14:55:35.433Z</time>
      </trkpt>
      <trkpt lat="48.24515816755593" lon="17.122924039140344">
        <ele>434.2</ele>
        <time>2023-06-13T14:55:38.321Z</time>
      </trkpt>
      <trkpt lat="48.245159927755594" lon="17.12291993200779">
        <ele>434.39</ele>
        <time>2023-06-13T14:55:41.209Z</time>
      </trkpt>
      <trkpt lat="48.245157497003675" lon="17.122925547882915">
        <ele>434.15</ele>
        <time>2023-06-13T14:55:44.097Z</time>
      </trkpt>
      <trkpt lat="48.24515691027045" lon="17.122926972806454">
        <ele>434.1</ele>
        <time>2023-06-13T14:55:46.985Z</time>
      </trkpt>
      <trkpt lat="48.24515665881336" lon="17.12292772717774">
        <ele>434.07</ele>
        <time>2023-06-13T14:55:49.873Z</time>
      </trkpt>
      <trkpt lat="48.2451456785202" lon="17.12295471690595">
        <ele>432.99</ele>
        <time>2023-06-13T14:55:52.762Z</time>
      </trkpt>
      <trkpt lat="48.2449471950531" lon="17.122771739959717">
        <ele>432.66</ele>
        <time>2023-06-13T14:55:55.655Z</time>
      </trkpt>
      <trkpt lat="48.24477553367615" lon="17.122514247894287">
        <ele>432.3</ele>
        <time>2023-06-13T14:55:58.553Z</time>
      </trkpt>
      <trkpt lat="48.244657600298524" lon="17.122256755828857">
        <ele>431.92</ele>
        <time>2023-06-13T14:56:01.455Z</time>
      </trkpt>
      <trkpt lat="48.24456104077399" lon="17.121795415878296">
        <ele>431.41</ele>
        <time>2023-06-13T14:56:04.364Z</time>
      </trkpt>
      <trkpt lat="48.2444965839386" lon="17.121301889419556">
        <ele>430.8</ele>
        <time>2023-06-13T14:56:07.280Z</time>
      </trkpt>
      <trkpt lat="48.24448593892157" lon="17.121087312698364">
        <ele>430.13</ele>
        <time>2023-06-13T14:56:10.199Z</time>
      </trkpt>
      <trkpt lat="48.24445366859436" lon="17.12066888809204">
        <ele>429.46</ele>
        <time>2023-06-13T14:56:13.123Z</time>
      </trkpt>
      <trkpt lat="48.24452877044678" lon="17.11947798728943">
        <ele>428.61</ele>
        <time>2023-06-13T14:56:16.063Z</time>
      </trkpt>
      <trkpt lat="48.24471116065979" lon="17.11822271347046">
        <ele>426.57</ele>
        <time>2023-06-13T14:56:19.020Z</time>
      </trkpt>
      <trkpt lat="48.24474334716797" lon="17.117289304733276">
        <ele>425.03</ele>
        <time>2023-06-13T14:56:21.990Z</time>
      </trkpt>
      <trkpt lat="48.24476480484009" lon="17.117139101028442">
        <ele>423.72</ele>
        <time>2023-06-13T14:56:24.962Z</time>
      </trkpt>
      <trkpt lat="48.24483999051154" lon="17.116817235946655">
        <ele>422.66</ele>
        <time>2023-06-13T14:56:27.938Z</time>
      </trkpt>
      <trkpt lat="48.24501156806946" lon="17.116366624832153">
        <ele>421.69</ele>
        <time>2023-06-13T14:56:30.921Z</time>
      </trkpt>
      <trkpt lat="48.24514031410217" lon="17.11596965789795">
        <ele>420.9</ele>
        <time>2023-06-13T14:56:33.910Z</time>
      </trkpt>
      <trkpt lat="48.24521541595459" lon="17.11571216583252">
        <ele>420.3</ele>
        <time>2023-06-13T14:56:36.903Z</time>
      </trkpt>
      <trkpt lat="48.245354890823364" lon="17.115036249160767">
        <ele>419.88</ele>
        <time>2023-06-13T14:56:39.905Z</time>
      </trkpt>
      <trkpt lat="48.245569467544556" lon="17.11422085762024">
        <ele>419.32</ele>
        <time>2023-06-13T14:56:42.919Z</time>
      </trkpt>
      <trkpt lat="48.24570894241333" lon="17.11390972137451">
        <ele>418.8</ele>
        <time>2023-06-13T14:56:45.938Z</time>
      </trkpt>
      <trkpt lat="48.24599862098694" lon="17.113308906555176">
        <ele>418.28</ele>
        <time>2023-06-13T14:56:48.967Z</time>
      </trkpt>
      <trkpt lat="48.2464599609375" lon="17.11242914199829">
        <ele>417.41</ele>
        <time>2023-06-13T14:56:52.011Z</time>
      </trkpt>
      <trkpt lat="48.24665307998657" lon="17.112096548080444">
        <ele>416.63</ele>
        <time>2023-06-13T14:56:55.061Z</time>
      </trkpt>
      <trkpt lat="48.246856927871704" lon="17.111817598342896">
        <ele>415.83</ele>
        <time>2023-06-13T14:56:58.116Z</time>
      </trkpt>
      <trkpt lat="48.2469642162323" lon="17.111645936965942">
        <ele>415.2</ele>
        <time>2023-06-13T14:57:01.175Z</time>
      </trkpt>
      <trkpt lat="48.24716814793646" lon="17.1112060546875">
        <ele>414.58</ele>
        <time>2023-06-13T14:57:04.241Z</time>
      </trkpt>
      <trkpt lat="48.24738264083862" lon="17.110776901245117">
        <ele>414.34</ele>
        <time>2023-06-13T14:57:07.314Z</time>
      </trkpt>
      <trkpt lat="48.24753284454346" lon="17.1102511882782">
        <ele>414.84</ele>
        <time>2023-06-13T14:57:10.395Z</time>
      </trkpt>
      <trkpt lat="48.247597217559814" lon="17.109596729278564">
        <ele>415.64</ele>
        <time>2023-06-13T14:57:13.484Z</time>
      </trkpt>
      <trkpt lat="48.247586488723755" lon="17.109328508377075">
        <ele>416.53</ele>
        <time>2023-06-13T14:57:16.577Z</time>
      </trkpt>
      <trkpt lat="48.24754365719855" lon="17.109071016311646">
        <ele>417.47</ele>
        <time>2023-06-13T14:57:19.674Z</time>
      </trkpt>
      <trkpt lat="48.24754357337952" lon="17.108888626098633">
        <ele>418.51</ele>
        <time>2023-06-13T14:57:22.773Z</time>
      </trkpt>
      <trkpt lat="48.247565031051636" lon="17.108759880065918">
        <ele>419.68</ele>
        <time>2023-06-13T14:57:25.874Z</time>
      </trkpt>
      <trkpt lat="48.24772596359253" lon="17.108405828475952">
        <ele>421.03</ele>
        <time>2023-06-13T14:57:28.981Z</time>
      </trkpt>
      <trkpt lat="48.24774742126465" lon="17.108330726623535">
        <ele>422.35</ele>
        <time>2023-06-13T14:57:32.089Z</time>
      </trkpt>
      <trkpt lat="48.24779033660889" lon="17.108008861541748">
        <ele>423.87</ele>
        <time>2023-06-13T14:57:35.201Z</time>
      </trkpt>
      <trkpt lat="48.247811794281006" lon="17.10718274116516">
        <ele>425.77</ele>
        <time>2023-06-13T14:57:38.324Z</time>
      </trkpt>
      <trkpt lat="48.247843980789185" lon="17.10673213005066">
        <ele>427.21</ele>
        <time>2023-06-13T14:57:41.453Z</time>
      </trkpt>
      <trkpt lat="48.24800491333008" lon="17.105627059936523">
        <ele>428.35</ele>
        <time>2023-06-13T14:57:44.597Z</time>
      </trkpt>
      <trkpt lat="48.248069286346436" lon="17.105122804641724">
        <ele>429.9</ele>
        <time>2023-06-13T14:57:47.748Z</time>
      </trkpt>
      <trkpt lat="48.248101472854614" lon="17.1047043800354">
        <ele>431.56</ele>
        <time>2023-06-13T14:57:50.905Z</time>
      </trkpt>
      <trkpt lat="48.24818730354309" lon="17.10424304008484">
        <ele>433.23</ele>
        <time>2023-06-13T14:57:54.068Z</time>
      </trkpt>
      <trkpt lat="48.24828386306763" lon="17.103513479232788">
        <ele>435.05</ele>
        <time>2023-06-13T14:57:57.241Z</time>
      </trkpt>
      <trkpt lat="48.248594999313354" lon="17.101571559906006">
        <ele>436.82</ele>
        <time>2023-06-13T14:58:00.441Z</time>
      </trkpt>
      <trkpt lat="48.24863791465759" lon="17.10119605064392">
        <ele>438.71</ele>
        <time>2023-06-13T14:58:03.646Z</time>
      </trkpt>
      <trkpt lat="48.24872374534607" lon="17.100863456726074">
        <ele>440.59</ele>
        <time>2023-06-13T14:58:06.856Z</time>
      </trkpt>
      <trkpt lat="48.24929237365723" lon="17.099586725234985">
        <ele>442.76</ele>
        <time>2023-06-13T14:58:10.086Z</time>
      </trkpt>
      <trkpt lat="48.249367475509644" lon="17.099404335021973">
        <ele>444.43</ele>
        <time>2023-06-13T14:58:13.319Z</time>
      </trkpt>
      <trkpt lat="48.24941039085388" lon="17.09922194480896">
        <ele>446.0</ele>
        <time>2023-06-13T14:58:16.555Z</time>
      </trkpt>
      <trkpt lat="48.24941039085388" lon="17.09900736808777">
        <ele>447.46</ele>
        <time>2023-06-13T14:58:19.793Z</time>
      </trkpt>
      <trkpt lat="48.2493782043457" lon="17.098664045333862">
        <ele>448.84</ele>
        <time>2023-06-13T14:58:23.036Z</time>
      </trkpt>
      <trkpt lat="48.249313831329346" lon="17.0982027053833">
        <ele>449.86</ele>
        <time>2023-06-13T14:58:26.285Z</time>
      </trkpt>
      <trkpt lat="48.24929245747626" lon="17.097784280776978">
        <ele>450.58</ele>
        <time>2023-06-13T14:58:29.540Z</time>
      </trkpt>
      <trkpt lat="48.24926018714905" lon="17.097280025482178">
        <ele>450.89</ele>
        <time>2023-06-13T14:58:32.802Z</time>
      </trkpt>
      <trkpt lat="48.24919581413269" lon="17.096775770187378">
        <ele>451.1</ele>
        <time>2023-06-13T14:58:36.071Z</time>
      </trkpt>
      <trkpt lat="48.24920654296875" lon="17.096335887908936">
        <ele>451.29</ele>
        <time>2023-06-13T14:58:39.346Z</time>
      </trkpt>
      <trkpt lat="48.24924945831299" lon="17.095649242401123">
        <ele>451.44</ele>
        <time>2023-06-13T14:58:42.630Z</time>
      </trkpt>
      <trkpt lat="48.24924945831299" lon="17.09545612335205">
        <ele>451.1</ele>
        <time>2023-06-13T14:58:45.916Z</time>
      </trkpt>
      <trkpt lat="48.2492280844599" lon="17.095338106155396">
        <ele>450.45</ele>
        <time>2023-06-13T14:58:49.204Z</time>
      </trkpt>
      <trkpt lat="48.24918508529663" lon="17.09526300430298">
        <ele>449.47</ele>
        <time>2023-06-13T14:58:52.493Z</time>
      </trkpt>
      <trkpt lat="48.24914216995239" lon="17.09520936012268">
        <ele>448.12</ele>
        <time>2023-06-13T14:58:55.783Z</time>
      </trkpt>
      <trkpt lat="48.248820304870605" lon="17.095059156417847">
        <ele>446.48</ele>
        <time>2023-06-13T14:58:59.080Z</time>
      </trkpt>
      <trkpt lat="48.24851989746094" lon="17.094801664352417">
        <ele>444.51</ele>
        <time>2023-06-13T14:59:02.384Z</time>
      </trkpt>
      <trkpt lat="48.24841260910034" lon="17.094662189483643">
        <ele>441.86</ele>
        <time>2023-06-13T14:59:05.691Z</time>
      </trkpt>
      <trkpt lat="48.24712514877319" lon="17.09368586540222">
        <ele>437.49</ele>
        <time>2023-06-13T14:59:09.027Z</time>
      </trkpt>
      <trkpt lat="48.2470178604126" lon="17.093535661697388">
        <ele>433.85</ele>
        <time>2023-06-13T14:59:12.366Z</time>
      </trkpt>
      <trkpt lat="48.24697494506836" lon="17.093353271484375">
        <ele>430.03</ele>
        <time>2023-06-13T14:59:15.707Z</time>
      </trkpt>
      <trkpt lat="48.24692130088806" lon="17.092559337615967">
        <ele>425.47</ele>
        <time>2023-06-13T14:59:19.059Z</time>
      </trkpt>
      <trkpt lat="48.24668526649475" lon="17.09145426750183">
        <ele>420.44</ele>
        <time>2023-06-13T14:59:22.426Z</time>
      </trkpt>
      <trkpt lat="48.24666380882263" lon="17.09100365638733">
        <ele>415.82</ele>
        <time>2023-06-13T14:59:25.800Z</time>
      </trkpt>
      <trkpt lat="48.24672818183899" lon="17.090424299240112">
        <ele>410.91</ele>
        <time>2023-06-13T14:59:29.181Z</time>
      </trkpt>
      <trkpt lat="48.246835470199585" lon="17.089877128601074">
        <ele>405.78</ele>
        <time>2023-06-13T14:59:32.570Z</time>
      </trkpt>
      <trkpt lat="48.24713587760925" lon="17.088611125946045">
        <ele>399.32</ele>
        <time>2023-06-13T14:59:35.977Z</time>
      </trkpt>
      <trkpt lat="48.24722170829773" lon="17.088418006896973">
        <ele>394.59</ele>
        <time>2023-06-13T14:59:39.387Z</time>
      </trkpt>
      <trkpt lat="48.2474148273468" lon="17.0882785320282">
        <ele>390.04</ele>
        <time>2023-06-13T14:59:42.801Z</time>
      </trkpt>
      <trkpt lat="48.24767231941223" lon="17.087860107421875">
        <ele>384.87</ele>
        <time>2023-06-13T14:59:46.223Z</time>
      </trkpt>
      <trkpt lat="48.247811794281006" lon="17.08744168281555">
        <ele>379.38</ele>
        <time>2023-06-13T14:59:49.651Z</time>
      </trkpt>
      <trkpt lat="48.247854709625244" lon="17.087098360061646">
        <ele>374.23</ele>
        <time>2023-06-13T14:59:53.084Z</time>
      </trkpt>
      <trkpt lat="48.247843980789185" lon="17.08675503730774">
        <ele>369.36</ele>
        <time>2023-06-13T14:59:56.521Z</time>
      </trkpt>
      <trkpt lat="48.247801065444946" lon="17.08627223968506">
        <ele>364.92</ele>
        <time>2023-06-13T14:59:59.965Z</time>
      </trkpt>
      <trkpt lat="48.247833251953125" lon="17.086143493652344">
        <ele>361.53</ele>
        <time>2023-06-13T15:00:03.411Z</time>
      </trkpt>
      <trkpt lat="48.24796199798584" lon="17.08599328994751">
        <ele>358.35</ele>
        <time>2023-06-13T15:00:06.860Z</time>
      </trkpt>
      <trkpt lat="48.248090744018555" lon="17.085918188095093">
        <ele>355.37</ele>
        <time>2023-06-13T15:00:10.312Z</time>
      </trkpt>
      <trkpt lat="48.2483696937561" lon="17.085832357406616">
        <ele>352.51</ele>
        <time>2023-06-13T15:00:13.770Z</time>
      </trkpt>
      <trkpt lat="48.24848771095276" lon="17.0857036113739">
        <ele>349.57</ele>
        <time>2023-06-13T15:00:17.230Z</time>
      </trkpt>
      <trkpt lat="48.24894905090332" lon="17.084577083587646">
        <ele>345.92</ele>
        <time>2023-06-13T15:00:20.708Z</time>
      </trkpt>
      <trkpt lat="48.249088609591126" lon="17.084351778030396">
        <ele>343.47</ele>
        <time>2023-06-13T15:00:24.190Z</time>
      </trkpt>
      <trkpt lat="48.24918508529663" lon="17.084115743637085">
        <ele>341.36</ele>
        <time>2023-06-13T15:00:27.676Z</time>
      </trkpt>
      <trkpt lat="48.24924945831299" lon="17.08376169204712">
        <ele>339.23</ele>
        <time>2023-06-13T15:00:31.167Z</time>
      </trkpt>
      <trkpt lat="48.2496945373714" lon="17.082495521754026">
        <ele>337.05</ele>
        <time>2023-06-13T15:00:34.677Z</time>
      </trkpt>
      <trkpt lat="48.24969520792365" lon="17.08249376155436">
        <ele>337.05</ele>
        <time>2023-06-13T15:00:38.187Z</time>
      </trkpt>
      <trkpt lat="48.24969721958041" lon="17.08248781040311">
        <ele>337.19</ele>
        <time>2023-06-13T15:00:41.697Z</time>
      </trkpt>
      <trkpt lat="48.2496977224946" lon="17.08248638547957">
        <ele>337.23</ele>
        <time>2023-06-13T15:00:45.207Z</time>
      </trkpt>
      <trkpt lat="48.24969805777073" lon="17.082485631108284">
        <ele>337.26</ele>
        <time>2023-06-13T15:00:48.717Z</time>
      </trkpt>
      <trkpt lat="48.24973225593567" lon="17.082388401031494">
        <ele>339.84</ele>
        <time>2023-06-13T15:00:52.229Z</time>
      </trkpt>
      <trkpt lat="48.249850273132324" lon="17.081540822982788">
        <ele>340.27</ele>
        <time>2023-06-13T15:00:55.752Z</time>
      </trkpt>
      <trkpt lat="48.249839544296265" lon="17.081422805786133">
        <ele>340.69</ele>
        <time>2023-06-13T15:00:59.277Z</time>
      </trkpt>
      <trkpt lat="48.249785983935" lon="17.081218957901">
        <ele>341.25</ele>
        <time>2023-06-13T15:01:02.805Z</time>
      </trkpt>
      <trkpt lat="48.24978590011597" lon="17.081218957901">
        <ele>341.87</ele>
        <time>2023-06-13T15:01:06.333Z</time>
      </trkpt>
      <trkpt lat="48.249893272295594" lon="17.08099365234375">
        <ele>342.88</ele>
        <time>2023-06-13T15:01:09.864Z</time>
      </trkpt>
      <trkpt lat="48.24989318847656" lon="17.08099365234375">
        <ele>343.76</ele>
        <time>2023-06-13T15:01:13.395Z</time>
      </trkpt>
      <trkpt lat="48.250097036361694" lon="17.080650329589844">
        <ele>345.23</ele>
        <time>2023-06-13T15:01:16.933Z</time>
      </trkpt>
      <trkpt lat="48.25041898526251" lon="17.08023190498352">
        <ele>346.61</ele>
        <time>2023-06-13T15:01:20.479Z</time>
      </trkpt>
      <trkpt lat="48.25046181678772" lon="17.080178260803223">
        <ele>347.51</ele>
        <time>2023-06-13T15:01:24.026Z</time>
      </trkpt>
      <trkpt lat="48.250826597213745" lon="17.079920768737793">
        <ele>348.33</ele>
        <time>2023-06-13T15:01:27.581Z</time>
      </trkpt>
      <trkpt lat="48.251566886901855" lon="17.079062461853027">
        <ele>349.12</ele>
        <time>2023-06-13T15:01:31.155Z</time>
      </trkpt>
      <trkpt lat="48.25172790326178" lon="17.078826427459717">
        <ele>350.37</ele>
        <time>2023-06-13T15:01:34.734Z</time>
      </trkpt>
      <trkpt lat="48.252114141359925" lon="17.07827925682068">
        <ele>352.48</ele>
        <time>2023-06-13T15:01:38.323Z</time>
      </trkpt>
      <trkpt lat="48.25320253148675" lon="17.076721396297216">
        <ele>354.34</ele>
        <time>2023-06-13T15:01:41.942Z</time>
      </trkpt>
      <trkpt lat="48.25317235663533" lon="17.076673787087202">
        <ele>358.49</ele>
        <time>2023-06-13T15:01:45.562Z</time>
      </trkpt>
      <trkpt lat="48.25320253148675" lon="17.076721396297216">
        <ele>356.42</ele>
        <time>2023-06-13T15:01:49.183Z</time>
      </trkpt>
      <trkpt lat="48.25328358449042" lon="17.076605558395386">
        <ele>356.58</ele>
        <time>2023-06-13T15:01:52.806Z</time>
      </trkpt>
      <trkpt lat="48.2534122467041" lon="17.076369524002075">
        <ele>356.98</ele>
        <time>2023-06-13T15:01:56.433Z</time>
      </trkpt>
      <trkpt lat="48.25353026390076" lon="17.076197862625122">
        <ele>357.13</ele>
        <time>2023-06-13T15:02:00.064Z</time>
      </trkpt>
      <trkpt lat="48.25365900993347" lon="17.07603693008423">
        <ele>357.06</ele>
        <time>2023-06-13T15:02:03.698Z</time>
      </trkpt>
      <trkpt lat="48.253862941637635" lon="17.075833082199097">
        <ele>356.68</ele>
        <time>2023-06-13T15:02:07.337Z</time>
      </trkpt>
      <trkpt lat="48.25399168767035" lon="17.075682878494263">
        <ele>356.58</ele>
        <time>2023-06-13T15:02:10.979Z</time>
      </trkpt>
      <trkpt lat="48.25403460301459" lon="17.075639963150024">
        <ele>356.59</ele>
        <time>2023-06-13T15:02:14.622Z</time>
      </trkpt>
      <trkpt lat="48.25418472290039" lon="17.07550048828125">
        <ele>356.77</ele>
        <time>2023-06-13T15:02:18.269Z</time>
      </trkpt>
      <trkpt lat="48.25425990857184" lon="17.07547903060913">
        <ele>357.02</ele>
        <time>2023-06-13T15:02:21.917Z</time>
      </trkpt>
      <trkpt lat="48.25425982475281" lon="17.07547903060913">
        <ele>357.23</ele>
        <time>2023-06-13T15:02:25.565Z</time>
      </trkpt>
      <trkpt lat="48.25439929962158" lon="17.07545757293701">
        <ele>357.54</ele>
        <time>2023-06-13T15:02:29.216Z</time>
      </trkpt>
      <trkpt lat="48.25450658798218" lon="17.075393199920654">
        <ele>357.88</ele>
        <time>2023-06-13T15:02:32.869Z</time>
      </trkpt>
      <trkpt lat="48.25463533401489" lon="17.075307369232178">
        <ele>358.2</ele>
        <time>2023-06-13T15:02:36.525Z</time>
      </trkpt>
      <trkpt lat="48.25475335121155" lon="17.075200080871582">
        <ele>358.35</ele>
        <time>2023-06-13T15:02:40.184Z</time>
      </trkpt>
      <trkpt lat="48.25488209724426" lon="17.075124979019165">
        <ele>358.33</ele>
        <time>2023-06-13T15:02:43.846Z</time>
      </trkpt>
      <trkpt lat="48.25513958930969" lon="17.07499623298645">
        <ele>357.98</ele>
        <time>2023-06-13T15:02:47.513Z</time>
      </trkpt>
      <trkpt lat="48.255289793014526" lon="17.074953317642212">
        <ele>357.5</ele>
        <time>2023-06-13T15:02:51.183Z</time>
      </trkpt>
      <trkpt lat="48.255375623703" lon="17.074899673461914">
        <ele>356.91</ele>
        <time>2023-06-13T15:02:54.855Z</time>
      </trkpt>
      <trkpt lat="48.25549917295575" lon="17.074690125882626">
        <ele>356.13</ele>
        <time>2023-06-13T15:02:58.531Z</time>
      </trkpt>
      <trkpt lat="48.25562238693237" lon="17.07448124885559">
        <ele>355.24</ele>
        <time>2023-06-13T15:03:02.211Z</time>
      </trkpt>
      <trkpt lat="48.25576186180115" lon="17.07427740097046">
        <ele>354.26</ele>
        <time>2023-06-13T15:03:05.894Z</time>
      </trkpt>
      <trkpt lat="48.255896056070924" lon="17.074105571955442">
        <ele>353.37</ele>
        <time>2023-06-13T15:03:09.581Z</time>
      </trkpt>
      <trkpt lat="48.25603008270264" lon="17.073934078216553">
        <ele>352.46</ele>
        <time>2023-06-13T15:03:13.272Z</time>
      </trkpt>
      <trkpt lat="48.25620174407959" lon="17.07375168800354">
        <ele>351.37</ele>
        <time>2023-06-13T15:03:16.967Z</time>
      </trkpt>
      <trkpt lat="48.25631984509528" lon="17.07359050400555">
        <ele>350.21</ele>
        <time>2023-06-13T15:03:20.665Z</time>
      </trkpt>
      <trkpt lat="48.2564377784729" lon="17.073429822921753">
        <ele>348.95</ele>
        <time>2023-06-13T15:03:24.366Z</time>
      </trkpt>
      <trkpt lat="48.256555795669556" lon="17.07321524620056">
        <ele>347.74</ele>
        <time>2023-06-13T15:03:28.071Z</time>
      </trkpt>
      <trkpt lat="48.256641793996096" lon="17.07288726232946">
        <ele>346.46</ele>
        <time>2023-06-13T15:03:31.781Z</time>
      </trkpt>
      <trkpt lat="48.25672745704651" lon="17.072560787200928">
        <ele>345.29</ele>
        <time>2023-06-13T15:03:35.495Z</time>
      </trkpt>
      <trkpt lat="48.256824016571045" lon="17.072303295135498">
        <ele>344.25</ele>
        <time>2023-06-13T15:03:39.213Z</time>
      </trkpt>
      <trkpt lat="48.25702786445618" lon="17.07202434539795">
        <ele>343.33</ele>
        <time>2023-06-13T15:03:42.937Z</time>
      </trkpt>
      <trkpt lat="48.25718879699707" lon="17.071852684020996">
        <ele>342.37</ele>
        <time>2023-06-13T15:03:46.665Z</time>
      </trkpt>
      <trkpt lat="48.257296085357666" lon="17.071702480316162">
        <ele>341.42</ele>
        <time>2023-06-13T15:03:50.396Z</time>
      </trkpt>
      <trkpt lat="48.2573926448822" lon="17.07148790359497">
        <ele>340.53</ele>
        <time>2023-06-13T15:03:54.130Z</time>
      </trkpt>
      <trkpt lat="48.25751082971692" lon="17.071278356015682">
        <ele>339.65</ele>
        <time>2023-06-13T15:03:57.868Z</time>
      </trkpt>
      <trkpt lat="48.25762867927551" lon="17.071069478988647">
        <ele>338.81</ele>
        <time>2023-06-13T15:04:01.609Z</time>
      </trkpt>
      <trkpt lat="48.25773613527417" lon="17.070854483172297">
        <ele>338.03</ele>
        <time>2023-06-13T15:04:05.354Z</time>
      </trkpt>
      <trkpt lat="48.257843255996704" lon="17.070640325546265">
        <ele>337.3</ele>
        <time>2023-06-13T15:04:09.103Z</time>
      </trkpt>
      <trkpt lat="48.25800083577633" lon="17.070296332240105">
        <ele>336.54</ele>
        <time>2023-06-13T15:04:12.857Z</time>
      </trkpt>
      <trkpt lat="48.258158499374986" lon="17.069952422752976">
        <ele>335.83</ele>
        <time>2023-06-13T15:04:16.617Z</time>
      </trkpt>
      <trkpt lat="48.25831540860236" lon="17.069610357284546">
        <ele>335.21</ele>
        <time>2023-06-13T15:04:20.382Z</time>
      </trkpt>
      <trkpt lat="48.25844407081604" lon="17.069363594055176">
        <ele>334.61</ele>
        <time>2023-06-13T15:04:24.151Z</time>
      </trkpt>
      <trkpt lat="48.25858907774091" lon="17.069143317639828">
        <ele>334.08</ele>
        <time>2023-06-13T15:04:27.925Z</time>
      </trkpt>
      <trkpt lat="48.25873383320868" lon="17.068923711776733">
        <ele>333.55</ele>
        <time>2023-06-13T15:04:31.703Z</time>
      </trkpt>
      <trkpt lat="48.25873374938965" lon="17.068923711776733">
        <ele>333.09</ele>
        <time>2023-06-13T15:04:35.481Z</time>
      </trkpt>
      <trkpt lat="48.25900197029114" lon="17.068687677383423">
        <ele>332.59</ele>
        <time>2023-06-13T15:04:39.265Z</time>
      </trkpt>
      <trkpt lat="48.2592006213963" lon="17.06839489750564">
        <ele>332.17</ele>
        <time>2023-06-13T15:04:43.055Z</time>
      </trkpt>
      <trkpt lat="48.2593993563205" lon="17.06810220144689">
        <ele>331.77</ele>
        <time>2023-06-13T15:04:46.850Z</time>
      </trkpt>
      <trkpt lat="48.2595980912447" lon="17.06780950538814">
        <ele>331.36</ele>
        <time>2023-06-13T15:04:50.651Z</time>
      </trkpt>
      <trkpt lat="48.259795904159546" lon="17.06751823425293">
        <ele>330.78</ele>
        <time>2023-06-13T15:04:54.457Z</time>
      </trkpt>
      <trkpt lat="48.25993009842932" lon="17.067378591746092">
        <ele>330.27</ele>
        <time>2023-06-13T15:04:58.267Z</time>
      </trkpt>
      <trkpt lat="48.260064125061035" lon="17.06723928451538">
        <ele>329.67</ele>
        <time>2023-06-13T15:05:02.080Z</time>
      </trkpt>
      <trkpt lat="48.260327065363526" lon="17.066992353647947">
        <ele>329.13</ele>
        <time>2023-06-13T15:05:05.899Z</time>
      </trkpt>
      <trkpt lat="48.260589838027954" lon="17.06674575805664">
        <ele>328.53</ele>
        <time>2023-06-13T15:05:09.724Z</time>
      </trkpt>
      <trkpt lat="48.26072948053479" lon="17.066557751968503">
        <ele>327.89</ele>
        <time>2023-06-13T15:05:13.553Z</time>
      </trkpt>
      <trkpt lat="48.260868871584535" lon="17.066370248794556">
        <ele>327.18</ele>
        <time>2023-06-13T15:05:17.386Z</time>
      </trkpt>
      <trkpt lat="48.2608687877655" lon="17.066370248794556">
        <ele>326.67</ele>
        <time>2023-06-13T15:05:21.219Z</time>
      </trkpt>
      <trkpt lat="48.26101899147034" lon="17.066155672073364">
        <ele>325.88</ele>
        <time>2023-06-13T15:05:25.056Z</time>
      </trkpt>
      <trkpt lat="48.26124438084662" lon="17.065944531932473">
        <ele>325.24</ele>
        <time>2023-06-13T15:05:28.898Z</time>
      </trkpt>
      <trkpt lat="48.261469854041934" lon="17.065733391791582">
        <ele>324.89</ele>
        <time>2023-06-13T15:05:32.745Z</time>
      </trkpt>
      <trkpt lat="48.26169490814209" lon="17.06552267074585">
        <ele>324.76</ele>
        <time>2023-06-13T15:05:36.598Z</time>
      </trkpt>
      <trkpt lat="48.26197394169867" lon="17.065361738204956">
        <ele>324.71</ele>
        <time>2023-06-13T15:05:40.457Z</time>
      </trkpt>
      <trkpt lat="48.26216161251068" lon="17.06525973044336">
        <ele>324.67</ele>
        <time>2023-06-13T15:05:44.320Z</time>
      </trkpt>
      <trkpt lat="48.262349367141724" lon="17.065157890319824">
        <ele>324.7</ele>
        <time>2023-06-13T15:05:48.187Z</time>
      </trkpt>
      <trkpt lat="48.26250493526459" lon="17.065029060468078">
        <ele>324.81</ele>
        <time>2023-06-13T15:05:52.057Z</time>
      </trkpt>
      <trkpt lat="48.26266050338745" lon="17.064900398254395">
        <ele>324.93</ele>
        <time>2023-06-13T15:05:55.931Z</time>
      </trkpt>
      <trkpt lat="48.26292872428894" lon="17.064718008041382">
        <ele>325.16</ele>
        <time>2023-06-13T15:05:59.811Z</time>
      </trkpt>
      <trkpt lat="48.26316475868225" lon="17.064621448516846">
        <ele>325.35</ele>
        <time>2023-06-13T15:06:03.696Z</time>
      </trkpt>
      <trkpt lat="48.26336860656738" lon="17.064567804336548">
        <ele>325.48</ele>
        <time>2023-06-13T15:06:07.585Z</time>
      </trkpt>
      <trkpt lat="48.263561725616455" lon="17.064589262008667">
        <ele>325.59</ele>
        <time>2023-06-13T15:06:11.478Z</time>
      </trkpt>
      <trkpt lat="48.26372265815735" lon="17.064567804336548">
        <ele>325.67</ele>
        <time>2023-06-13T15:06:15.374Z</time>
      </trkpt>
      <trkpt lat="48.263840675354004" lon="17.064460515975952">
        <ele>325.65</ele>
        <time>2023-06-13T15:06:19.273Z</time>
      </trkpt>
      <trkpt lat="48.26395869255066" lon="17.064331769943237">
        <ele>325.63</ele>
        <time>2023-06-13T15:06:23.175Z</time>
      </trkpt>
      <trkpt lat="48.26416254043579" lon="17.06403136253357">
        <ele>325.55</ele>
        <time>2023-06-13T15:06:27.082Z</time>
      </trkpt>
      <trkpt lat="48.26437711715698" lon="17.06389901228249">
        <ele>325.44</ele>
        <time>2023-06-13T15:06:30.994Z</time>
      </trkpt>
      <trkpt lat="48.264591693878174" lon="17.063766662031412">
        <ele>325.27</ele>
        <time>2023-06-13T15:06:34.911Z</time>
      </trkpt>
      <trkpt lat="48.264806270599365" lon="17.063634395599365">
        <ele>325.09</ele>
        <time>2023-06-13T15:06:38.832Z</time>
      </trkpt>
      <trkpt lat="48.2649564743042" lon="17.06349483691156">
        <ele>324.85</ele>
        <time>2023-06-13T15:06:42.757Z</time>
      </trkpt>
      <trkpt lat="48.26510667800903" lon="17.063355445861816">
        <ele>324.51</ele>
        <time>2023-06-13T15:06:46.685Z</time>
      </trkpt>
      <trkpt lat="48.265299797058105" lon="17.0632266998291">
        <ele>324.18</ele>
        <time>2023-06-13T15:06:50.618Z</time>
      </trkpt>
      <trkpt lat="48.265514289960265" lon="17.063146233558655">
        <ele>323.73</ele>
        <time>2023-06-13T15:06:54.555Z</time>
      </trkpt>
      <trkpt lat="48.26572895050049" lon="17.063065767288208">
        <ele>323.23</ele>
        <time>2023-06-13T15:06:58.496Z</time>
      </trkpt>
      <trkpt lat="48.265814781188965" lon="17.06301212310791">
        <ele>322.66</ele>
        <time>2023-06-13T15:07:02.439Z</time>
      </trkpt>
      <trkpt lat="48.26597579754889" lon="17.062829732894897">
        <ele>321.92</ele>
        <time>2023-06-13T15:07:06.386Z</time>
      </trkpt>
      <trkpt lat="48.26617956161499" lon="17.062711715698242">
        <ele>321.08</ele>
        <time>2023-06-13T15:07:10.338Z</time>
      </trkpt>
      <trkpt lat="48.26627620495856" lon="17.062711715698242">
        <ele>320.29</ele>
        <time>2023-06-13T15:07:14.292Z</time>
      </trkpt>
      <trkpt lat="48.266340494155884" lon="17.062711715698242">
        <ele>319.48</ele>
        <time>2023-06-13T15:07:18.247Z</time>
      </trkpt>
      <trkpt lat="48.26650142669678" lon="17.0627760887146">
        <ele>318.6</ele>
        <time>2023-06-13T15:07:22.205Z</time>
      </trkpt>
      <trkpt lat="48.26665163040161" lon="17.062883377075195">
        <ele>317.74</ele>
        <time>2023-06-13T15:07:26.167Z</time>
      </trkpt>
      <trkpt lat="48.266844833269715" lon="17.062947750091553">
        <ele>316.82</ele>
        <time>2023-06-13T15:07:30.133Z</time>
      </trkpt>
      <trkpt lat="48.267080867663026" lon="17.06297993659973">
        <ele>315.97</ele>
        <time>2023-06-13T15:07:34.103Z</time>
      </trkpt>
      <trkpt lat="48.26735436916351" lon="17.063065683469176">
        <ele>315.14</ele>
        <time>2023-06-13T15:07:38.079Z</time>
      </trkpt>
      <trkpt lat="48.267628038302064" lon="17.063151597976685">
        <ele>314.22</ele>
        <time>2023-06-13T15:07:42.061Z</time>
      </trkpt>
      <trkpt lat="48.26788544654846" lon="17.063194513320923">
        <ele>313.26</ele>
        <time>2023-06-13T15:07:46.048Z</time>
      </trkpt>
      <trkpt lat="48.268041014671326" lon="17.063146233558655">
        <ele>312.43</ele>
        <time>2023-06-13T15:07:50.038Z</time>
      </trkpt>
      <trkpt lat="48.26819666661322" lon="17.063097953796387">
        <ele>311.67</ele>
        <time>2023-06-13T15:07:54.031Z</time>
      </trkpt>
      <trkpt lat="48.268314599990845" lon="17.063065767288208">
        <ele>311.03</ele>
        <time>2023-06-13T15:07:58.026Z</time>
      </trkpt>
      <trkpt lat="48.268534541130066" lon="17.06293157301843">
        <ele>310.55</ele>
        <time>2023-06-13T15:08:02.026Z</time>
      </trkpt>
      <trkpt lat="48.26875448226929" lon="17.06279754638672">
        <ele>310.15</ele>
        <time>2023-06-13T15:08:06.031Z</time>
      </trkpt>
      <trkpt lat="48.269033432006836" lon="17.0627760887146">
        <ele>309.6</ele>
        <time>2023-06-13T15:08:10.042Z</time>
      </trkpt>
      <trkpt lat="48.26920509338379" lon="17.0627224445343">
        <ele>309.09</ele>
        <time>2023-06-13T15:08:14.056Z</time>
      </trkpt>
      <trkpt lat="48.26940894126892" lon="17.06254005432129">
        <ele>308.6</ele>
        <time>2023-06-13T15:08:18.075Z</time>
      </trkpt>
      <trkpt lat="48.26953777112067" lon="17.062368392944336">
        <ele>308.01</ele>
        <time>2023-06-13T15:08:22.097Z</time>
      </trkpt>
      <trkpt lat="48.26965570449829" lon="17.062186002731323">
        <ele>307.38</ele>
        <time>2023-06-13T15:08:26.123Z</time>
      </trkpt>
      <trkpt lat="48.26975226402283" lon="17.06200361251831">
        <ele>306.66</ele>
        <time>2023-06-13T15:08:30.152Z</time>
      </trkpt>
      <trkpt lat="48.2698919903487" lon="17.06164344213903">
        <ele>305.83</ele>
        <time>2023-06-13T15:08:34.186Z</time>
      </trkpt>
      <trkpt lat="48.27003129757941" lon="17.06128478050232">
        <ele>304.89</ele>
        <time>2023-06-13T15:08:38.226Z</time>
      </trkpt>
      <trkpt lat="48.270031213760376" lon="17.06128478050232">
        <ele>304.02</ele>
        <time>2023-06-13T15:08:42.266Z</time>
      </trkpt>
      <trkpt lat="48.27015995979309" lon="17.060855627059937">
        <ele>303.01</ele>
        <time>2023-06-13T15:08:46.312Z</time>
      </trkpt>
      <trkpt lat="48.27030119486153" lon="17.06048548221588">
        <ele>301.89</ele>
        <time>2023-06-13T15:08:50.364Z</time>
      </trkpt>
      <trkpt lat="48.270442513749" lon="17.060115421190858">
        <ele>300.72</ele>
        <time>2023-06-13T15:08:54.422Z</time>
      </trkpt>
      <trkpt lat="48.270583748817444" lon="17.059745276346803">
        <ele>299.27</ele>
        <time>2023-06-13T15:08:58.485Z</time>
      </trkpt>
      <trkpt lat="48.270725067704916" lon="17.05937521532178">
        <ele>297.8</ele>
        <time>2023-06-13T15:09:02.554Z</time>
      </trkpt>
      <trkpt lat="48.27086638659239" lon="17.059005070477724">
        <ele>296.55</ele>
        <time>2023-06-13T15:09:06.629Z</time>
      </trkpt>
      <trkpt lat="48.27100762166083" lon="17.0586350094527">
        <ele>295.33</ele>
        <time>2023-06-13T15:09:10.709Z</time>
      </trkpt>
      <trkpt lat="48.27114701271057" lon="17.05826997756958">
        <ele>294.09</ele>
        <time>2023-06-13T15:09:14.795Z</time>
      </trkpt>
      <trkpt lat="48.27127601020038" lon="17.05790444277227">
        <ele>292.99</ele>
        <time>2023-06-13T15:09:18.886Z</time>
      </trkpt>
      <trkpt lat="48.27140500769019" lon="17.05753890797496">
        <ele>291.62</ele>
        <time>2023-06-13T15:09:22.983Z</time>
      </trkpt>
      <trkpt lat="48.271533250808716" lon="17.057175636291504">
        <ele>290.1</ele>
        <time>2023-06-13T15:09:27.086Z</time>
      </trkpt>
      <trkpt lat="48.271635342389345" lon="17.056966004893184">
        <ele>288.68</ele>
        <time>2023-06-13T15:09:31.192Z</time>
      </trkpt>
      <trkpt lat="48.27173709869385" lon="17.05675721168518">
        <ele>287.29</ele>
        <time>2023-06-13T15:09:35.301Z</time>
      </trkpt>
      <trkpt lat="48.27189811505377" lon="17.05651044845581">
        <ele>285.98</ele>
        <time>2023-06-13T15:09:39.415Z</time>
      </trkpt>
      <trkpt lat="48.27198386192322" lon="17.056381702423096">
        <ele>284.71</ele>
        <time>2023-06-13T15:09:43.531Z</time>
      </trkpt>
      <trkpt lat="48.27206986024976" lon="17.056145165115595">
        <ele>283.62</ele>
        <time>2023-06-13T15:09:47.651Z</time>
      </trkpt>
      <trkpt lat="48.2721556071192" lon="17.055909633636475">
        <ele>282.68</ele>
        <time>2023-06-13T15:09:51.775Z</time>
      </trkpt>
      <trkpt lat="48.27232751995325" lon="17.055528005585074">
        <ele>281.57</ele>
        <time>2023-06-13T15:09:55.905Z</time>
      </trkpt>
      <trkpt lat="48.27249884605408" lon="17.055147886276245">
        <ele>280.72</ele>
        <time>2023-06-13T15:10:00.041Z</time>
      </trkpt>
      <trkpt lat="48.272574031725526" lon="17.054932806640863">
        <ele>280.03</ele>
        <time>2023-06-13T15:10:04.180Z</time>
      </trkpt>
      <trkpt lat="48.27264904975891" lon="17.054718732833862">
        <ele>279.44</ele>
        <time>2023-06-13T15:10:08.322Z</time>
      </trkpt>
      <trkpt lat="48.27274041250348" lon="17.05435847863555">
        <ele>278.88</ele>
        <time>2023-06-13T15:10:12.470Z</time>
      </trkpt>
      <trkpt lat="48.272831439971924" lon="17.05399990081787">
        <ele>278.23</ele>
        <time>2023-06-13T15:10:16.623Z</time>
      </trkpt>
      <trkpt lat="48.27294954098761" lon="17.053624391555786">
        <ele>277.52</ele>
        <time>2023-06-13T15:10:20.781Z</time>
      </trkpt>
      <trkpt lat="48.27301391400397" lon="17.053399085998535">
        <ele>276.76</ele>
        <time>2023-06-13T15:10:24.943Z</time>
      </trkpt>
      <trkpt lat="48.273078203201294" lon="17.053098678588867">
        <ele>275.96</ele>
        <time>2023-06-13T15:10:29.109Z</time>
      </trkpt>
      <trkpt lat="48.27310502529144" lon="17.05264144577086">
        <ele>275.13</ele>
        <time>2023-06-13T15:10:33.281Z</time>
      </trkpt>
      <trkpt lat="48.27313184738159" lon="17.052186727523804">
        <ele>274.29</ele>
        <time>2023-06-13T15:10:37.459Z</time>
      </trkpt>
      <trkpt lat="48.27318549156189" lon="17.05199360847473">
        <ele>273.58</ele>
        <time>2023-06-13T15:10:41.640Z</time>
      </trkpt>
      <trkpt lat="48.27326059341431" lon="17.051843404769897">
        <ele>272.94</ele>
        <time>2023-06-13T15:10:45.823Z</time>
      </trkpt>
      <trkpt lat="48.273265957832336" lon="17.051606699824333">
        <ele>272.13</ele>
        <time>2023-06-13T15:10:50.009Z</time>
      </trkpt>
      <trkpt lat="48.273271322250366" lon="17.051371335983276">
        <ele>271.51</ele>
        <time>2023-06-13T15:10:54.199Z</time>
      </trkpt>
      <trkpt lat="48.273292779922485" lon="17.05102801322937">
        <ele>271.05</ele>
        <time>2023-06-13T15:10:58.393Z</time>
      </trkpt>
      <trkpt lat="48.273324966430664" lon="17.051221132278442">
        <ele>271.03</ele>
        <time>2023-06-13T15:11:02.590Z</time>
      </trkpt>
      <trkpt lat="48.27337123453617" lon="17.051322301849723">
        <ele>270.98</ele>
        <time>2023-06-13T15:11:06.788Z</time>
      </trkpt>
      <trkpt lat="48.27367055229843" lon="17.05146781168878">
        <ele>272.24</ele>
        <time>2023-06-13T15:11:10.993Z</time>
      </trkpt>
      <trkpt lat="48.273969953879714" lon="17.05161340534687">
        <ele>272.11</ele>
        <time>2023-06-13T15:11:15.204Z</time>
      </trkpt>
      <trkpt lat="48.274067770689726" lon="17.051661014556885">
        <ele>271.9</ele>
        <time>2023-06-13T15:11:19.417Z</time>
      </trkpt>
      <trkpt lat="48.274324676021934" lon="17.051388518884778">
        <ele>267.52</ele>
        <time>2023-06-13T15:11:23.636Z</time>
      </trkpt>
      <trkpt lat="48.27458158135414" lon="17.05111602321267">
        <ele>264.63</ele>
        <time>2023-06-13T15:11:27.862Z</time>
      </trkpt>
      <trkpt lat="48.2747960742563" lon="17.050888454541564">
        <ele>262.4</ele>
        <time>2023-06-13T15:11:32.093Z</time>
      </trkpt>
      <trkpt lat="48.27501836232841" lon="17.05055451951921">
        <ele>258.34</ele>
        <time>2023-06-13T15:11:36.330Z</time>
      </trkpt>
      <trkpt lat="48.27524056658149" lon="17.050220668315887">
        <ele>257.16</ele>
        <time>2023-06-13T15:11:40.574Z</time>
      </trkpt>
      <trkpt lat="48.2754628546536" lon="17.049886733293533">
        <ele>256.31</ele>
        <time>2023-06-13T15:11:44.824Z</time>
      </trkpt>
      <trkpt lat="48.27555304393172" lon="17.04975119791925">
        <ele>255.75</ele>
        <time>2023-06-13T15:11:49.076Z</time>
      </trkpt>
      <trkpt lat="48.27586233615875" lon="17.049664109945297">
        <ele>251.89</ele>
        <time>2023-06-13T15:11:53.335Z</time>
      </trkpt>
      <trkpt lat="48.276171712204814" lon="17.049576938152313">
        <ele>249.45</ele>
        <time>2023-06-13T15:11:57.600Z</time>
      </trkpt>
      <trkpt lat="48.27623851597309" lon="17.049558078870177">
        <ele>248.07</ele>
        <time>2023-06-13T15:12:01.866Z</time>
      </trkpt>
      <trkpt lat="48.276507407426834" lon="17.049803249537945">
        <ele>236.18</ele>
        <time>2023-06-13T15:12:06.139Z</time>
      </trkpt>
      <trkpt lat="48.27677629888058" lon="17.050048420205712">
        <ele>229.3</ele>
        <time>2023-06-13T15:12:10.418Z</time>
      </trkpt>
      <trkpt lat="48.27704519033432" lon="17.050293507054448">
        <ele>222.2</ele>
        <time>2023-06-13T15:12:14.703Z</time>
      </trkpt>
      <trkpt lat="48.27731408178806" lon="17.050538677722216">
        <ele>216.16</ele>
        <time>2023-06-13T15:12:18.995Z</time>
      </trkpt>
      <trkpt lat="48.27750946395099" lon="17.050716876983643">
        <ele>211.81</ele>
        <time>2023-06-13T15:12:23.291Z</time>
      </trkpt>
      <trkpt lat="48.277824288234115" lon="17.050714194774628">
        <ele>203.13</ele>
        <time>2023-06-13T15:12:27.593Z</time>
      </trkpt>
      <trkpt lat="48.278139028698206" lon="17.050711596384645">
        <ele>201.45</ele>
        <time>2023-06-13T15:12:31.902Z</time>
      </trkpt>
      <trkpt lat="48.2784537691623" lon="17.05070891417563">
        <ele>200.43</ele>
        <time>2023-06-13T15:12:36.217Z</time>
      </trkpt>
      <trkpt lat="48.27876850962639" lon="17.050706231966615">
        <ele>199.23</ele>
        <time>2023-06-13T15:12:40.538Z</time>
      </trkpt>
      <trkpt lat="48.278988199308515" lon="17.050704387947917">
        <ele>198.23</ele>
        <time>2023-06-13T15:12:44.864Z</time>
      </trkpt>
    </trkseg>
  </trk>
</gpx>
